Latitude: N 50° 09' 49" Longitude: W 05° 11' 53" Elevation: 168m ASL

There are 14 visitors online

Adverts

<- Previous Day | Today | Next Day ->

All Data for 12 January 2018

Time
A - D
Temp
A - D
Dew Point
A - D
Humidity
A - D
Pressure
A - D
Wind
A - D
Wind Dir Gust
A - D
Rain Rate
A - D
Rain Total
12:05 8.7 8.3 97 1021.8 15.2 E 19.0 0.0 0.0
11:38 8.5 8.4 99 1022.2 14.5 SE 15.9 0.0 0.0
11:39 8.5 8.4 99 1022.4 11.4 SE 15.9 0.0 0.0
11:41 8.5 8.2 98 1022.1 14.5 S 15.9 0.0 0.0
11:42 8.5 8.2 98 1022.2 11.4 SE 15.9 0.0 0.0
11:43 8.5 8.2 98 1022.1 9.8 SE 15.9 0.0 0.0
11:44 8.5 8.2 98 1022.0 15.9 S 15.9 0.0 0.0
11:45 8.5 8.2 98 1022.2 10.7 SE 15.9 0.0 0.0
11:46 8.5 8.2 98 1022.0 10.7 SE 15.9 0.0 0.0
12:24 8.5 7.9 96 1021.5 12.1 SE 19.0 0.0 0.0
12:25 8.5 7.9 96 1021.4 16.8 SE 19.0 0.0 0.0
12:26 8.5 7.9 96 1021.4 17.4 SE 19.0 0.0 0.0
12:27 8.5 7.9 96 1021.5 17.4 SE 19.0 0.0 0.0
12:28 8.5 7.9 96 1021.2 11.4 SE 19.0 0.0 0.0
12:29 8.5 7.9 96 1021.2 14.5 N 17.4 0.0 0.0
12:30 8.5 7.9 96 1021.3 9.8 N 17.4 0.0 0.0
12:31 8.5 7.9 96 1021.3 15.2 SE 17.4 0.0 0.0
12:32 8.5 7.9 96 1021.2 16.8 SE 17.4 0.0 0.0
11:35 8.4 8.3 99 1022.4 11.4 SE 15.9 0.0 0.0
11:36 8.4 8.3 99 1022.4 11.4 SE 15.9 0.0 0.0
11:37 8.4 8.1 98 1022.3 11.4 SE 15.9 0.0 0.0
11:40 8.4 8.1 98 1022.2 12.1 SE 15.9 0.0 0.0
11:47 8.4 8.1 98 1022.0 15.9 SE 15.9 0.0 0.0
11:48 8.4 8.1 98 1022.0 13.6 SE 15.9 0.0 0.0
11:49 8.4 8.1 98 1021.9 14.5 SE 15.9 0.0 0.0
11:50 8.4 8.1 98 1022.1 8.3 SE 15.9 0.0 0.0
11:51 8.4 8.1 98 1022.0 13.6 SE 15.9 0.0 0.0
11:52 8.4 8.1 98 1022.0 13.6 SE 15.9 0.0 0.0
11:53 8.4 8.1 98 1021.9 15.9 SE 15.9 0.0 0.0
11:54 8.4 8.1 98 1021.9 15.9 SE 15.9 0.0 0.0
11:55 8.4 8.0 97 1021.9 13.6 SE 15.9 0.0 0.0
11:56 8.4 8.0 97 1021.8 15.2 SE 15.9 0.0 0.0
11:57 8.4 8.0 97 1022.0 15.2 SE 15.9 0.0 0.0
11:58 8.4 8.0 97 1022.0 11.4 SE 15.9 0.0 0.0
12:00 8.4 8.0 97 1021.9 15.2 SE 15.9 0.0 0.0
12:01 8.4 8.0 97 1022.0 11.4 E 15.9 0.0 0.0
12:02 8.4 8.0 97 1021.8 15.9 SE 15.9 0.0 0.0
12:03 8.4 8.0 97 1021.8 13.6 NW 15.9 0.0 0.0
12:04 8.4 8.0 97 1021.9 13.6 SE 15.9 0.0 0.0
12:06 8.4 8.0 97 1021.9 17.4 SE 19.0 0.0 0.0
12:07 8.4 8.0 97 1021.9 14.5 S 19.0 0.0 0.0
12:08 8.4 8.0 97 1021.9 12.1 SE 19.0 0.0 0.0
12:10 8.4 8.0 97 1021.8 12.1 SE 19.0 0.0 0.0
12:16 8.4 8.0 97 1021.7 12.1 SE 16.8 0.0 0.0
12:18 8.4 8.0 97 1021.7 19.0 SE 19.0 0.0 0.0
12:19 8.4 8.0 97 1021.6 14.5 SE 19.0 0.0 0.0
12:20 8.4 8.0 97 1021.6 13.6 SE 19.0 0.0 0.0
12:21 8.4 7.8 96 1021.5 17.4 SE 19.0 0.0 0.0
12:22 8.4 7.8 96 1021.6 14.5 S 19.0 0.0 0.0
12:23 8.4 7.8 96 1021.4 17.4 SE 19.0 0.0 0.0
12:33 8.4 7.8 96 1021.3 18.3 SE 18.3 0.0 0.0
12:34 8.4 7.8 96 1021.2 22.8 SE 22.8 0.0 0.0
12:35 8.4 7.8 96 1021.2 11.4 SE 22.8 0.0 0.0
12:36 8.4 7.8 96 1021.2 15.2 SE 22.8 0.0 0.0
12:37 8.4 7.8 96 1021.2 16.8 SE 22.8 0.0 0.0
11:34 8.3 8.2 99 1022.5 13.6 SE 15.9 0.0 0.0
12:12 8.3 7.9 97 1021.7 10.7 SE 19.0 0.0 0.0
12:13 8.3 7.9 97 1021.7 13.6 SE 19.0 0.0 0.0
12:15 8.3 7.9 97 1021.6 16.8 SE 17.4 0.0 0.0
12:38 8.3 7.7 96 1021.2 15.9 E 22.8 0.0 0.0
12:39 8.3 7.7 96 1021.4 15.2 SE 22.8 0.0 0.0
12:40 8.3 7.7 96 1021.3 16.8 SE 22.8 0.0 0.0
12:41 8.3 7.7 96 1021.2 16.8 WNW 22.8 0.0 0.0
12:42 8.3 7.7 96 1021.2 13.0 SE 22.8 0.0 0.0
12:43 8.3 7.7 96 1021.3 11.4 SE 22.8 0.0 0.0
11:31 8.2 8.1 99 1022.3 12.1 SE 15.2 0.0 0.0
11:32 8.2 8.1 99 1022.3 13.0 NNW 15.2 0.0 0.0
11:33 8.2 8.1 99 1022.4 8.3 SE 13.0 0.0 0.0
12:45 8.2 7.6 96 1021.3 13.6 E 17.4 0.0 0.0
12:46 8.2 7.6 96 1021.2 15.2 SE 17.4 0.0 0.0
12:47 8.2 7.6 96 1021.2 17.4 SE 17.4 0.0 0.0
12:48 8.2 7.6 96 1021.2 14.5 SE 17.4 0.0 0.0
12:49 8.2 7.6 96 1021.2 13.6 SE 17.4 0.0 0.0
11:15 8.1 8.0 99 1022.2 13.6 W 15.2 0.0 0.0
11:18 8.1 8.0 99 1022.3 13.6 SE 15.2 0.0 0.0
11:20 8.1 8.0 99 1022.2 10.7 SE 14.5 0.0 0.0
11:21 8.1 8.0 99 1022.2 8.3 S 14.5 0.0 0.0
11:23 8.1 8.0 99 1022.3 10.7 SE 15.2 0.0 0.0
11:24 8.1 8.0 99 1022.3 11.4 SE 15.2 0.0 0.0
11:26 8.1 8.0 99 1022.3 13.0 S 15.2 0.0 0.0
11:27 8.1 8.0 99 1022.4 9.8 SE 15.2 0.0 0.0
11:28 8.1 8.0 99 1022.4 8.3 SE 15.2 0.0 0.0
11:29 8.1 8.0 99 1022.5 10.7 S 15.2 0.0 0.0
11:30 8.1 8.0 99 1022.3 12.1 S 15.2 0.0 0.0
12:50 8.1 7.5 96 1021.2 11.4 SE 17.4 0.0 0.0
12:51 8.1 7.5 96 1021.2 15.9 SE 17.4 0.0 0.0
12:52 8.1 7.5 96 1021.2 16.8 SE 17.4 0.0 0.0
12:53 8.1 7.5 96 1021.3 13.0 S 17.4 0.0 0.0
12:54 8.1 7.5 96 1021.1 15.2 SE 17.4 0.0 0.0
19:42 8.1 8.0 99 1017.4 11.4 N 15.2 0.0 0.0
19:43 8.1 8.0 99 1017.3 16.8 SE 16.8 0.0 0.0
19:46 8.1 8.0 99 1017.2 12.1 W 16.8 0.0 0.0
19:47 8.1 8.0 99 1017.4 11.4 S 16.8 0.0 0.0
19:49 8.1 8.0 99 1017.4 14.5 SE 18.3 0.0 0.0
19:50 8.1 8.0 99 1017.4 15.2 SE 18.3 0.0 0.0
19:51 8.1 8.0 99 1017.3 13.6 E 18.3 0.0 0.0
19:53 8.1 8.0 99 1017.3 18.3 SE 18.3 0.0 0.0
19:54 8.1 8.0 99 1017.3 15.2 SE 18.3 0.0 0.0
19:56 8.1 8.0 99 1017.2 12.1 SE 18.3 0.0 0.0
19:57 8.1 8.0 99 1017.3 15.2 SE 18.3 0.0 0.0
19:58 8.1 8.0 99 1017.2 16.8 SE 18.3 0.0 0.0
19:59 8.1 8.0 99 1017.3 15.9 E 18.3 0.0 0.0
20:00 8.1 8.0 99 1017.2 13.0 SE 18.3 0.0 0.0
20:01 8.1 8.0 99 1017.2 13.0 SE 18.3 0.0 0.0
20:02 8.1 8.0 99 1017.2 13.0 SE 18.3 0.0 0.0
20:03 8.1 8.0 99 1017.3 13.0 SE 16.8 0.0 0.0
20:05 8.1 8.0 99 1017.3 13.0 SE 16.8 0.0 0.0
20:06 8.1 8.0 99 1017.3 16.8 S 16.8 0.0 0.0
20:07 8.1 8.0 99 1017.3 13.6 SE 16.8 0.0 0.0
20:08 8.1 8.0 99 1017.2 15.9 NNE 16.8 0.0 0.0
20:10 8.1 8.0 99 1017.3 16.8 SE 16.8 0.0 0.0
20:11 8.1 8.0 99 1017.1 14.5 SE 16.8 0.0 0.0
20:13 8.1 8.0 99 1017.2 12.1 S 16.8 0.0 0.0
20:15 8.1 8.0 99 1017.3 14.5 SE 16.8 0.0 0.0
20:16 8.1 8.0 99 1017.0 12.1 SE 16.8 0.0 0.0
20:18 8.1 8.0 99 1017.1 15.9 SE 16.8 0.0 0.0
20:19 8.1 8.0 99 1017.2 13.0 S 16.8 0.0 0.0
20:20 8.1 8.0 99 1017.1 10.7 SE 15.9 0.0 0.0
20:21 8.1 8.0 99 1017.1 13.0 SE 15.9 0.0 0.0
20:22 8.1 8.0 99 1017.1 12.1 NW 15.9 0.0 0.0
20:24 8.1 8.0 99 1017.1 13.0 SE 15.9 0.0 0.0
20:25 8.1 8.0 99 1017.0 14.5 SE 15.9 0.0 0.0
20:26 8.1 8.0 99 1017.2 11.4 SE 15.9 0.0 0.0
20:27 8.1 8.0 99 1017.1 14.5 S 15.9 0.0 0.0
20:28 8.1 8.0 99 1017.0 16.8 SE 16.8 0.0 0.0
20:29 8.1 8.0 99 1017.1 21.3 SE 21.3 0.0 0.0
20:31 8.1 8.0 99 1017.0 17.4 SE 21.3 0.0 0.0
20:32 8.1 8.0 99 1017.0 10.7 SE 21.3 0.0 0.0
20:33 8.1 8.0 99 1016.9 15.9 SE 21.3 0.0 0.0
20:34 8.1 8.0 99 1017.0 13.0 SE 21.3 0.0 0.0
11:11 8.0 7.9 99 1022.3 10.7 E 15.2 0.0 0.0
11:12 8.0 7.9 99 1022.3 10.7 SE 15.2 0.0 0.0
11:14 8.0 7.9 99 1022.2 13.6 SE 15.2 0.0 0.0
11:17 8.0 7.9 99 1022.2 12.1 SE 15.2 0.0 0.0
12:55 8.0 7.4 96 1021.0 15.9 SE 17.4 0.0 0.0
12:57 8.0 7.4 96 1021.0 10.7 NW 16.8 0.0 0.0
12:58 8.0 7.4 96 1021.0 18.3 SE 18.3 0.0 0.0
12:59 8.0 7.4 96 1021.2 13.6 SE 18.3 0.0 0.0
13:00 8.0 7.4 96 1020.9 13.6 SE 18.3 0.0 0.0
13:01 8.0 7.4 96 1021.0 15.9 S 18.3 0.0 0.0
13:02 8.0 7.4 96 1021.0 10.7 SE 18.3 0.0 0.0
13:03 8.0 7.4 96 1020.9 15.2 SE 18.3 0.0 0.0
13:05 8.0 7.4 96 1020.9 10.7 SE 18.3 0.0 0.0
13:06 8.0 7.4 96 1020.9 13.0 SE 18.3 0.0 0.0
13:07 8.0 7.4 96 1021.1 15.2 SE 18.3 0.0 0.0
13:08 8.0 7.4 96 1020.9 13.6 SE 18.3 0.0 0.0
13:09 8.0 7.4 96 1021.0 15.9 SE 16.8 0.0 0.0
13:10 8.0 7.4 96 1020.9 13.6 E 16.8 0.0 0.0
13:11 8.0 7.4 96 1020.8 15.2 SE 16.8 0.0 0.0
13:13 8.0 7.4 96 1020.9 13.6 N 16.8 0.0 0.0
13:14 8.0 7.4 96 1021.0 16.8 SE 16.8 0.0 0.0
13:16 8.0 7.4 96 1020.7 18.3 SE 18.3 0.0 0.0
13:17 8.0 7.4 96 1020.9 13.6 SE 18.3 0.0 0.0
13:18 8.0 7.4 96 1020.8 15.2 SE 18.3 0.0 0.0
13:19 8.0 7.4 96 1020.9 19.0 SE 19.0 0.0 0.0
13:20 8.0 7.4 96 1020.8 13.0 SE 19.7 0.0 0.0
13:21 8.0 7.4 96 1020.8 15.2 SE 19.7 0.0 0.0
13:22 8.0 7.4 96 1020.8 13.6 SE 19.7 0.0 0.0
13:23 8.0 7.4 96 1020.8 15.9 SE 19.7 0.0 0.0
13:24 8.0 7.4 96 1020.7 15.9 S 19.7 0.0 0.0
13:25 8.0 7.4 96 1020.8 13.0 SE 19.7 0.0 0.0
17:50 8.0 7.9 99 1017.8 11.4 SE 15.2 0.0 0.0
17:51 8.0 7.9 99 1017.8 10.7 SW 15.2 0.0 0.0
17:52 8.0 7.9 99 1017.7 14.5 S 15.2 0.0 0.0
17:53 8.0 7.9 99 1017.6 13.0 SE 15.2 0.0 0.0
17:55 8.0 7.9 99 1017.7 11.4 SE 16.8 0.0 0.0
17:56 8.0 7.9 99 1017.7 14.5 SE 16.8 0.0 0.0
17:58 8.0 7.9 99 1017.7 13.6 SE 16.8 0.0 0.0
18:00 8.0 7.9 99 1017.7 11.4 S 16.8 0.0 0.0
18:01 8.0 7.9 99 1017.8 16.8 SE 16.8 0.0 0.0
18:02 8.0 7.9 99 1017.9 13.0 SE 16.8 0.0 0.0
18:04 8.0 7.9 99 1017.8 15.9 E 16.8 0.0 0.0
18:05 8.0 7.9 99 1017.7 15.9 NNE 16.8 0.0 0.0
18:06 8.0 7.9 99 1017.9 15.9 SE 16.8 0.0 0.0
18:07 8.0 7.9 99 1017.8 17.4 SE 17.4 0.0 0.0
18:09 8.0 7.9 99 1017.9 13.6 SE 18.3 0.0 0.0
18:11 8.0 7.9 99 1017.9 13.0 SE 18.3 0.0 0.0
18:13 8.0 7.9 99 1017.9 12.1 SE 18.3 0.0 0.0
18:15 8.0 7.9 99 1017.7 16.8 SE 18.3 0.0 0.0
18:16 8.0 7.9 99 1017.9 15.9 SE 18.3 0.0 0.0
18:18 8.0 7.9 99 1017.9 13.6 SE 18.3 0.0 0.0
18:19 8.0 7.9 99 1017.9 14.5 S 17.4 0.0 0.0
18:20 8.0 7.9 99 1017.9 13.6 SE 17.4 0.0 0.0
18:22 8.0 7.9 99 1017.8 8.3 SE 16.8 0.0 0.0
18:23 8.0 7.9 99 1017.8 12.1 SE 16.8 0.0 0.0
18:24 8.0 7.9 99 1018.0 14.5 SE 16.8 0.0 0.0
18:25 8.0 7.9 99 1017.8 14.5 SE 17.4 0.0 0.0
18:26 8.0 7.9 99 1017.9 13.6 SE 18.3 0.0 0.0
18:28 8.0 7.9 99 1017.9 14.5 SE 18.3 0.0 0.0
18:29 8.0 7.9 99 1017.8 15.2 E 18.3 0.0 0.0
18:30 8.0 7.9 99 1017.7 13.0 SE 18.3 0.0 0.0
18:31 8.0 7.9 99 1017.8 15.9 SE 18.3 0.0 0.0
18:32 8.0 7.9 99 1017.9 14.5 S 18.3 0.0 0.0
18:34 8.0 7.9 99 1017.8 14.5 SE 18.3 0.0 0.0
18:35 8.0 7.9 99 1017.7 9.2 SE 18.3 0.0 0.0
18:36 8.0 7.9 99 1017.8 11.4 SE 18.3 0.0 0.0
18:38 8.0 7.9 99 1017.8 14.5 W 18.3 0.0 0.0
18:40 8.0 7.9 99 1017.8 10.7 SE 18.3 0.0 0.0
18:41 8.0 7.9 99 1017.8 11.4 SE 18.3 0.0 0.0
18:44 8.0 7.9 99 1017.8 18.3 SE 18.3 0.0 0.0
18:45 8.0 7.9 99 1017.9 11.4 E 18.3 0.0 0.0
18:47 8.0 7.9 99 1017.8 11.4 SE 18.3 0.0 0.0
18:51 8.0 7.9 99 1017.7 13.0 SE 19.0 0.0 0.0
18:52 8.0 7.9 99 1017.9 11.4 S 19.0 0.0 0.0
18:53 8.0 7.9 99 1017.9 14.5 S 19.0 0.0 0.0
18:54 8.0 7.9 99 1017.8 13.0 SE 19.0 0.0 0.0
18:55 8.0 7.9 99 1017.7 17.4 SE 19.0 0.0 0.0
18:56 8.0 7.9 99 1017.8 15.2 SE 19.0 0.0 0.0
18:58 8.0 7.9 99 1017.8 10.7 S 19.0 0.0 0.0
18:59 8.0 7.9 99 1017.7 15.9 S 17.4 0.0 0.0
19:00 8.0 7.9 99 1017.7 13.6 SE 17.4 0.0 0.0
19:01 8.0 7.9 99 1017.8 13.0 SE 17.4 0.0 0.0
19:04 8.0 7.9 99 1017.8 13.6 SE 17.4 0.0 0.0
19:06 8.0 7.9 99 1017.7 13.0 SE 15.9 0.0 0.0
19:09 8.0 7.9 99 1017.6 17.4 SE 17.4 0.0 0.0
19:12 8.0 7.9 99 1017.5 13.0 W 17.4 0.0 0.0
19:15 8.0 7.9 99 1017.7 13.6 SE 17.4 0.0 0.0
19:18 8.0 7.9 99 1017.7 10.7 N 17.4 0.0 0.0
19:20 8.0 7.9 99 1017.6 15.9 SE 16.8 0.0 0.0
19:22 8.0 7.9 99 1017.6 10.7 S 16.8 0.0 0.0
19:26 8.0 7.9 99 1017.5 12.1 SE 19.7 0.0 0.0
19:27 8.0 7.9 99 1017.3 13.6 SE 19.7 0.0 0.0
19:31 8.0 7.9 99 1017.2 12.1 NNW 19.7 0.0 0.0
19:34 8.0 7.9 99 1017.3 14.5 SE 18.3 0.0 0.0
19:36 8.0 7.9 99 1017.4 14.5 SE 15.2 0.0 0.0
19:38 8.0 7.9 99 1017.3 13.6 SE 15.2 0.0 0.0
19:41 8.0 7.9 99 1017.3 11.4 SE 15.2 0.0 0.0
19:44 8.0 7.9 99 1017.3 10.7 E 16.8 0.0 0.0
20:35 8.0 7.9 99 1016.9 13.6 SE 21.3 0.0 0.0
20:36 8.0 7.9 99 1017.0 14.5 SE 21.3 0.0 0.0
20:37 8.0 7.9 99 1016.9 18.3 SE 21.3 0.0 0.0
20:38 8.0 7.9 99 1017.0 21.3 SE 21.3 0.0 0.0
20:39 8.0 7.9 99 1016.8 15.9 SE 21.3 0.0 0.0
20:41 8.0 7.9 99 1016.9 13.6 SE 21.3 0.0 0.0
20:42 8.0 7.9 99 1016.8 12.1 SE 21.3 0.0 0.0
20:43 8.0 7.9 99 1017.0 17.4 SE 21.3 0.0 0.0
20:44 8.0 7.9 99 1016.9 20.6 SE 21.3 0.0 0.0
20:45 8.0 7.9 99 1017.0 15.2 SE 21.3 0.0 0.0
20:46 8.0 7.9 99 1016.8 18.3 SE 21.3 0.0 0.0
20:47 8.0 7.9 99 1016.9 12.1 SE 21.3 0.0 0.0
20:48 8.0 7.9 99 1016.7 16.8 SE 23.5 0.0 0.0
20:49 8.0 7.9 99 1016.7 9.2 SE 23.5 0.0 0.0
20:50 8.0 7.9 99 1016.7 12.1 SE 23.5 0.0 0.0
20:52 8.0 7.9 99 1016.8 17.4 SE 23.5 0.0 0.0
20:53 8.0 7.9 99 1016.6 13.6 SE 23.5 0.0 0.0
20:54 8.0 7.9 99 1016.7 11.4 SE 23.5 0.0 0.0
11:09 7.9 7.8 99 1022.2 15.2 SE 15.2 0.0 0.0
13:26 7.9 7.3 96 1020.7 13.6 SE 19.7 0.0 0.0
13:27 7.9 7.3 96 1020.7 15.9 S 19.7 0.0 0.0
13:28 7.9 7.3 96 1020.6 13.6 SE 19.7 0.0 0.0
13:29 7.9 7.3 96 1020.7 13.6 SE 19.7 0.0 0.0
13:30 7.9 7.3 96 1020.7 15.9 SE 19.0 0.0 0.0
13:31 7.9 7.3 96 1020.6 16.8 SE 19.0 0.0 0.0
13:32 7.9 7.3 96 1020.7 15.2 S 19.0 0.0 0.0
13:33 7.9 7.3 96 1020.7 14.5 SE 19.0 0.0 0.0
13:34 7.9 7.3 96 1020.6 14.5 SE 19.0 0.0 0.0
13:36 7.9 7.3 96 1020.6 13.6 SE 19.0 0.0 0.0
13:38 7.9 7.3 96 1020.8 18.3 SE 19.0 0.0 0.0
13:41 7.9 7.3 96 1020.6 17.4 SE 19.0 0.0 0.0
17:23 7.9 7.8 99 1018.2 13.6 SE 14.5 0.0 0.0
17:27 7.9 7.8 99 1018.3 14.5 S 14.5 0.0 0.0
17:29 7.9 7.8 99 1018.2 9.2 SE 14.5 0.0 0.0
17:31 7.9 7.8 99 1018.3 9.8 SE 14.5 0.0 0.0
17:32 7.9 7.8 99 1018.1 11.4 SE 14.5 0.0 0.0
17:33 7.9 7.8 99 1018.2 12.1 E 14.5 0.0 0.0
17:34 7.9 7.8 99 1018.2 9.2 SE 14.5 0.0 0.0
17:35 7.9 7.8 99 1018.2 13.0 SE 14.5 0.0 0.0
17:36 7.9 7.8 99 1018.2 12.1 SE 14.5 0.0 0.0
17:38 7.9 7.8 99 1018.2 14.5 SE 14.5 0.0 0.0
17:39 7.9 7.8 99 1018.1 12.1 SE 14.5 0.0 0.0
17:40 7.9 7.8 99 1018.1 12.1 SE 14.5 0.0 0.0
17:41 7.9 7.8 99 1018.0 8.3 SE 14.5 0.0 0.0
17:42 7.9 7.8 99 1017.9 13.6 SE 14.5 0.0 0.0
17:43 7.9 7.8 99 1018.1 15.2 SE 15.2 0.0 0.0
17:44 7.9 7.8 99 1017.9 12.1 SE 15.2 0.0 0.0
17:45 7.9 7.8 99 1017.8 12.1 NE 15.2 0.0 0.0
17:46 7.9 7.8 99 1017.8 10.7 E 15.2 0.0 0.0
17:47 7.9 7.8 99 1017.9 13.6 E 15.2 0.0 0.0
17:49 7.9 7.8 99 1017.8 10.7 NE 15.2 0.0 0.0
18:39 7.9 7.8 99 1017.9 15.2 SE 18.3 0.0 0.0
18:42 7.9 7.8 99 1017.9 16.8 SE 18.3 0.0 0.0
18:46 7.9 7.8 99 1018.0 13.6 SE 18.3 0.0 0.0
18:48 7.9 7.8 99 1017.8 19.0 W 19.0 0.0 0.0
18:50 7.9 7.8 99 1017.9 16.8 SE 19.0 0.0 0.0
20:55 7.9 7.8 99 1016.8 13.6 SE 23.5 0.0 0.0
20:56 7.9 7.8 99 1016.6 15.2 SE 23.5 0.0 0.0
20:57 7.9 7.8 99 1016.6 11.4 SE 23.5 0.0 0.0
20:58 7.9 7.8 99 1016.7 9.8 SE 18.3 0.0 0.0
20:59 7.9 7.8 99 1016.6 12.1 S 18.3 0.0 0.0
21:00 7.9 7.8 99 1016.5 13.0 SE 18.3 0.0 0.0
21:02 7.9 7.8 99 1016.7 13.0 SE 15.2 0.0 0.0
21:03 7.9 7.8 99 1016.6 13.0 SE 15.2 0.0 0.0
21:04 7.9 7.8 99 1016.7 13.0 SE 15.2 0.0 0.0
21:05 7.9 7.8 99 1016.5 13.0 SE 15.2 0.0 0.0
21:06 7.9 7.8 99 1016.6 14.5 SE 14.5 0.0 0.0
21:07 7.9 7.8 99 1016.5 16.8 E 16.8 0.0 0.0
21:09 7.9 7.8 99 1016.5 11.4 SE 16.8 0.0 0.0
21:11 7.9 7.8 99 1016.6 13.0 NE 16.8 0.0 0.0
21:14 7.9 7.8 99 1016.5 13.6 SE 16.8 0.0 0.0
21:16 7.9 7.8 99 1016.5 13.0 SE 16.8 0.0 0.0
11:00 7.8 7.7 99 1022.3 11.4 SE 12.1 0.0 0.0
11:01 7.8 7.7 99 1022.4 12.1 SE 12.1 0.0 0.0
11:02 7.8 7.7 99 1022.4 12.1 SE 12.1 0.0 0.0
11:03 7.8 7.7 99 1022.3 13.0 SE 13.0 0.0 0.0
11:04 7.8 7.7 99 1022.3 11.4 SE 13.0 0.0 0.0
11:05 7.8 7.7 99 1022.3 9.2 SE 13.0 0.0 0.0
11:06 7.8 7.7 99 1022.3 13.0 SE 13.0 0.0 0.0
11:08 7.8 7.7 99 1022.2 11.4 SE 13.0 0.0 0.0
13:37 7.8 7.2 96 1020.6 12.1 SE 19.0 0.0 0.0
13:39 7.8 7.2 96 1020.5 16.8 SE 19.0 0.0 0.0
13:40 7.8 7.2 96 1020.6 17.4 SE 19.0 0.0 0.0
13:42 7.8 7.2 96 1020.5 9.8 SE 19.0 0.0 0.0
13:43 7.8 7.2 96 1020.5 17.4 SE 19.0 0.0 0.0
13:44 7.8 7.2 96 1020.6 13.6 NE 19.0 0.0 0.0
13:45 7.8 7.2 96 1020.5 14.5 SE 19.0 0.0 0.0
13:46 7.8 7.2 96 1020.3 12.1 SE 19.0 0.0 0.0
13:48 7.8 7.2 96 1020.4 17.4 N 17.4 0.0 0.0
13:49 7.8 7.2 96 1020.5 12.1 S 17.4 0.0 0.0
17:12 7.8 7.7 99 1018.6 10.7 E 15.9 0.0 0.0
17:13 7.8 7.7 99 1018.5 9.8 SE 15.9 0.0 0.0
17:15 7.8 7.7 99 1018.4 9.2 SE 15.9 0.0 0.0
17:16 7.8 7.7 99 1018.5 14.5 SE 15.9 0.0 0.0
17:17 7.8 7.7 99 1018.3 9.8 SE 15.9 0.0 0.0
17:18 7.8 7.7 99 1018.4 14.5 SE 15.9 0.0 0.0
17:19 7.8 7.7 99 1018.2 10.7 SE 15.9 0.0 0.0
17:20 7.8 7.7 99 1018.3 13.6 E 15.9 0.0 0.0
17:21 7.8 7.7 99 1018.5 13.0 SE 14.5 0.0 0.0
17:22 7.8 7.7 99 1018.2 13.6 SE 14.5 0.0 0.0
17:24 7.8 7.7 99 1018.3 13.0 SE 14.5 0.0 0.0
17:26 7.8 7.7 99 1018.4 12.1 SE 14.5 0.0 0.0
17:28 7.8 7.7 99 1018.2 9.8 SE 14.5 0.0 0.0
21:13 7.8 7.7 99 1016.5 10.7 SE 16.8 0.0 0.0
21:17 7.8 7.7 99 1016.5 13.0 SE 19.7 0.0 0.0
21:19 7.8 7.7 99 1016.4 12.1 NE 19.7 0.0 0.0
21:20 7.8 7.7 99 1016.4 11.4 SE 19.7 0.0 0.0
21:21 7.8 7.7 99 1016.5 14.5 SE 19.7 0.0 0.0
21:23 7.8 7.7 99 1016.5 10.7 E 19.7 0.0 0.0
21:24 7.8 7.7 99 1016.6 15.9 S 19.7 0.0 0.0
21:25 7.8 7.7 99 1016.5 10.7 SE 19.7 0.0 0.0
21:26 7.8 7.7 99 1016.5 15.9 SE 19.7 0.0 0.0
21:27 7.8 7.7 99 1016.5 6.9 SE 15.9 0.0 0.0
10:50 7.7 7.6 99 1022.5 11.4 SE 13.6 0.0 0.0
10:51 7.7 7.6 99 1022.4 9.8 SE 13.6 0.0 0.0
10:52 7.7 7.6 99 1022.4 9.2 SE 13.6 0.0 0.0
10:53 7.7 7.6 99 1022.5 10.7 SE 13.6 0.0 0.0
10:54 7.7 7.6 99 1022.5 10.7 SE 13.6 0.0 0.0
10:55 7.7 7.6 99 1022.4 11.4 SE 13.6 0.0 0.0
10:56 7.7 7.6 99 1022.4 11.4 SE 13.6 0.0 0.0
10:57 7.7 7.6 99 1022.4 11.4 S 13.6 0.0 0.0
10:58 7.7 7.6 99 1022.2 8.3 SE 11.4 0.0 0.0
10:59 7.7 7.6 99 1022.3 12.1 SE 12.1 0.0 0.0
13:47 7.7 7.1 96 1020.6 12.1 S 18.3 0.0 0.0
13:50 7.7 7.1 96 1020.5 13.6 SE 17.4 0.0 0.0
13:51 7.7 7.1 96 1020.4 9.8 SE 17.4 0.0 0.0
13:52 7.7 7.1 96 1020.3 19.0 SE 19.0 0.0 0.0
13:54 7.7 7.1 96 1020.2 13.6 SE 19.0 0.0 0.0
13:55 7.7 7.1 96 1020.2 15.2 SE 19.0 0.0 0.0
13:56 7.7 7.1 96 1020.3 13.6 SE 19.0 0.0 0.0
13:57 7.7 7.1 96 1020.2 15.2 SE 19.0 0.0 0.0
13:58 7.7 7.1 96 1020.1 15.2 SE 19.0 0.0 0.0
13:59 7.7 7.1 96 1020.1 14.5 S 19.0 0.0 0.0
14:00 7.7 7.1 96 1020.2 14.5 SE 19.0 0.0 0.0
14:01 7.7 7.1 96 1019.9 9.2 SE 19.0 0.0 0.0
14:02 7.7 7.1 96 1020.0 12.1 SE 19.0 0.0 0.0
14:04 7.7 7.1 96 1019.9 12.1 SE 15.2 0.0 0.0
14:05 7.7 7.1 96 1019.9 11.4 SE 15.2 0.0 0.0
14:06 7.7 7.1 96 1020.0 15.9 S 15.9 0.0 0.0
16:59 7.7 7.6 99 1018.6 6.9 SE 16.8 0.0 0.0
17:00 7.7 7.6 99 1018.5 6.9 SE 16.8 0.0 0.0
17:01 7.7 7.6 99 1018.6 6.9 SE 14.5 0.0 0.0
17:02 7.7 7.6 99 1018.5 6.9 SE 14.5 0.0 0.0
17:03 7.7 7.6 99 1018.6 6.9 SE 14.5 0.0 0.0
17:04 7.7 7.6 99 1018.5 10.7 SE 14.5 0.0 0.0
17:05 7.7 7.6 99 1018.4 7.6 SE 14.5 0.0 0.0
17:06 7.7 7.6 99 1018.5 8.3 SE 14.5 0.0 0.0
17:07 7.7 7.6 99 1018.4 14.5 SE 14.5 0.0 0.0
17:09 7.7 7.6 99 1018.6 12.1 SE 14.5 0.0 0.0
17:10 7.7 7.6 99 1018.5 15.9 SE 15.9 0.0 0.0
21:28 7.7 7.6 99 1016.4 18.3 SE 18.3 0.0 0.0
21:29 7.7 7.6 99 1016.5 14.5 N 18.3 0.0 0.0
21:30 7.7 7.6 99 1016.5 14.5 SE 18.3 0.0 0.0
21:31 7.7 7.6 99 1016.6 10.7 SE 18.3 0.0 0.0
21:32 7.7 7.6 99 1016.5 10.7 SE 18.3 0.0 0.0
21:34 7.7 7.6 99 1016.4 11.4 SE 18.3 0.0 0.0
21:35 7.7 7.6 99 1016.5 9.2 SE 18.3 0.0 0.0
21:36 7.7 7.6 99 1016.4 12.1 SE 18.3 0.0 0.0
21:37 7.7 7.6 99 1016.6 13.6 SE 18.3 0.0 0.0
21:38 7.7 7.6 99 1016.4 13.6 E 18.3 0.0 0.0
21:39 7.7 7.6 99 1016.3 11.4 SE 14.5 0.0 0.0
21:40 7.7 7.6 99 1016.2 13.6 E 19.0 0.0 0.0
21:41 7.7 7.6 99 1016.5 15.9 SE 19.0 0.0 0.0
21:43 7.7 7.6 99 1016.5 10.7 SE 19.0 0.0 0.0
21:44 7.7 7.6 99 1016.4 11.4 SE 19.0 0.0 0.0
21:45 7.7 7.6 99 1016.4 12.1 SE 19.0 0.0 0.0
21:46 7.7 7.6 99 1016.4 13.0 SE 19.0 0.0 0.0
21:48 7.7 7.6 99 1016.4 11.4 SE 19.0 0.0 0.0
21:49 7.7 7.6 99 1016.4 15.2 E 19.0 0.0 0.0
21:50 7.7 7.6 99 1016.5 9.2 SE 18.3 0.0 0.0
21:52 7.7 7.6 99 1016.4 13.6 SE 18.3 0.0 0.0
21:54 7.7 7.6 99 1016.3 9.2 E 18.3 0.0 0.0
21:55 7.7 7.6 99 1016.2 11.4 E 18.3 0.0 0.0
21:56 7.7 7.6 99 1016.2 11.4 SE 18.3 0.0 0.0
21:57 7.7 7.6 99 1016.4 11.4 SE 18.3 0.0 0.0
21:58 7.7 7.6 99 1016.3 14.5 SE 15.2 0.0 0.0
21:59 7.7 7.6 99 1016.3 15.2 N 15.2 0.0 0.0
22:01 7.7 7.6 99 1016.3 15.9 SE 15.9 0.0 0.0
22:02 7.7 7.6 99 1016.2 12.1 SE 15.9 0.0 0.0
22:03 7.7 7.6 99 1016.2 14.5 SE 15.9 0.0 0.0
22:24 7.7 7.6 99 1016.2 16.8 SE 17.4 0.0 0.0
22:25 7.7 7.6 99 1016.2 13.0 SE 17.4 0.0 0.0
22:28 7.7 7.6 99 1016.2 19.0 SE 19.0 0.0 0.0
22:29 7.7 7.6 99 1016.1 18.3 SE 19.0 0.0 0.0
22:31 7.7 7.6 99 1016.2 15.2 SE 22.8 0.0 0.0
22:32 7.7 7.6 99 1016.0 11.4 SE 22.8 0.0 0.0
22:33 7.7 7.6 99 1016.0 9.2 NNW 22.8 0.0 0.0
22:34 7.7 7.6 99 1016.0 7.6 E 22.8 0.0 0.0
22:35 7.7 7.6 99 1016.0 12.1 SE 22.8 0.0 0.0
22:37 7.7 7.6 99 1015.9 10.7 E 22.8 0.0 0.0
22:38 7.7 7.6 99 1016.2 9.8 SE 22.8 0.0 0.0
22:39 7.7 7.6 99 1016.0 14.5 SE 22.8 0.0 0.0
22:40 7.7 7.6 99 1016.0 15.2 SE 22.8 0.0 0.0
22:42 7.7 7.6 99 1015.8 13.0 N 15.2 0.0 0.0
23:00 7.7 7.6 99 1015.7 13.0 SE 19.7 0.0 0.0
23:02 7.7 7.6 99 1015.6 13.0 SE 19.7 0.0 0.0
23:03 7.7 7.6 99 1015.6 13.0 SE 19.7 0.0 0.0
23:04 7.7 7.6 99 1015.6 13.0 SE 19.0 0.0 0.0
23:05 7.7 7.6 99 1015.6 20.6 E 20.6 0.0 0.0
23:07 7.7 7.6 99 1015.4 10.7 SE 20.6 0.0 0.0
23:08 7.7 7.6 99 1015.6 13.0 SE 20.6 0.0 0.0
23:09 7.7 7.6 99 1015.3 18.3 SE 20.6 0.0 0.0
23:10 7.7 7.6 99 1015.8 13.0 SE 20.6 0.0 0.0
23:11 7.7 7.6 99 1015.4 12.1 SE 20.6 0.0 0.0
23:12 7.7 7.6 99 1015.4 13.0 SE 20.6 0.0 0.0
23:14 7.7 7.6 99 1015.4 15.2 NNE 20.6 0.0 0.0
23:15 7.7 7.6 99 1015.5 10.7 SE 20.6 0.0 0.0
23:16 7.7 7.6 99 1015.6 11.4 SE 18.3 0.0 0.0
23:18 7.7 7.6 99 1015.5 13.0 SE 18.3 0.0 0.0
23:19 7.7 7.6 99 1015.5 15.2 SE 15.2 0.0 0.0
23:20 7.7 7.6 99 1015.5 13.0 NE 15.2 0.0 0.0
23:21 7.7 7.6 99 1015.4 15.2 SE 15.2 0.0 0.0
23:23 7.7 7.6 99 1015.3 9.2 SE 15.2 0.0 0.0
23:24 7.7 7.6 99 1015.4 9.8 N 15.2 0.0 0.0
23:26 7.7 7.6 99 1015.4 18.3 SE 18.3 0.0 0.0
23:30 7.7 7.6 99 1015.4 15.9 SE 18.3 0.0 0.0
23:34 7.7 7.6 99 1015.2 13.0 E 18.3 0.0 0.0
23:36 7.7 7.6 99 1015.4 19.0 SE 19.0 0.0 0.0
23:38 7.7 7.6 99 1015.3 13.0 SE 19.0 0.0 0.0
10:36 7.6 7.5 99 1022.6 8.3 S 15.2 0.0 0.0
10:37 7.6 7.5 99 1022.5 10.7 SE 15.2 0.0 0.0
10:38 7.6 7.5 99 1022.5 9.2 W 15.2 0.0 0.0
10:39 7.6 7.5 99 1022.4 6.0 SE 11.4 0.0 0.0
10:40 7.6 7.5 99 1022.3 9.8 SE 11.4 0.0 0.0
10:41 7.6 7.5 99 1022.4 9.8 SE 11.4 0.0 0.0
10:42 7.6 7.5 99 1022.3 9.2 SE 11.4 0.0 0.0
10:43 7.6 7.5 99 1022.4 9.8 WNW 10.7 0.0 0.0
10:44 7.6 7.5 99 1022.3 10.7 SE 10.7 0.0 0.0
10:45 7.6 7.5 99 1022.5 8.3 SE 10.7 0.0 0.0
10:46 7.6 7.5 99 1022.4 8.3 SE 10.7 0.0 0.0
10:47 7.6 7.5 99 1022.5 13.0 SE 13.0 0.0 0.0
10:48 7.6 7.5 99 1022.4 13.6 SE 13.6 0.0 0.0
10:49 7.6 7.5 99 1022.4 11.4 SE 13.6 0.0 0.0
14:03 7.6 7.0 96 1020.1 12.1 SE 15.2 0.0 0.0
14:08 7.6 7.0 96 1019.9 16.8 SE 16.8 0.0 0.0
14:09 7.6 7.0 96 1019.9 10.7 SE 16.8 0.0 0.0
14:11 7.6 7.0 96 1020.1 11.4 SE 16.8 0.0 0.0
14:12 7.6 7.0 96 1019.8 9.2 SE 16.8 0.0 0.0
14:13 7.6 7.0 96 1019.8 6.0 SE 16.8 0.0 0.0
14:14 7.6 7.0 96 1019.9 12.1 SE 16.8 0.0 0.0
14:15 7.6 7.0 96 1019.8 14.5 SE 16.8 0.0 0.0
14:16 7.6 7.0 96 1019.9 13.6 SE 16.8 0.0 0.0
14:17 7.6 7.2 97 1019.9 15.2 SE 16.8 0.0 0.0
14:20 7.6 7.2 97 1019.8 15.9 SE 15.9 0.0 0.0
14:23 7.6 7.2 97 1019.7 14.5 S 18.3 0.0 0.0
14:24 7.6 7.2 97 1019.7 13.6 S 18.3 0.0 0.0
16:50 7.6 7.5 99 1018.5 16.8 SE 16.8 0.0 0.0
16:52 7.6 7.5 99 1018.6 11.4 SE 16.8 0.0 0.0
16:53 7.6 7.5 99 1018.5 12.1 SE 16.8 0.0 0.0
16:54 7.6 7.5 99 1018.5 9.2 SE 16.8 0.0 0.0
16:55 7.6 7.5 99 1018.5 11.4 SE 16.8 0.0 0.0
16:56 7.6 7.5 99 1018.5 11.4 SE 16.8 0.0 0.0
16:57 7.6 7.5 99 1018.7 9.2 S 16.8 0.0 0.0
16:58 7.6 7.5 99 1018.5 10.7 NW 16.8 0.0 0.0
21:47 7.6 7.5 99 1016.5 12.1 SE 19.0 0.0 0.0
21:53 7.6 7.5 99 1016.3 15.2 SE 18.3 0.0 0.0
22:05 7.6 7.5 99 1016.2 11.4 E 17.4 0.0 0.0
22:06 7.6 7.5 99 1016.1 13.0 SE 17.4 0.0 0.0
22:07 7.6 7.5 99 1016.1 13.0 SE 17.4 0.0 0.0
22:08 7.6 7.5 99 1016.1 15.9 E 17.4 0.0 0.0
22:09 7.6 7.5 99 1016.1 12.1 S 17.4 0.0 0.0
22:11 7.6 7.5 99 1016.1 20.6 SE 20.6 0.0 0.0
22:13 7.6 7.5 99 1016.1 13.0 SE 20.6 0.0 0.0
22:15 7.6 7.5 99 1016.1 11.4 SE 20.6 0.0 0.0
22:16 7.6 7.5 99 1016.3 17.4 S 20.6 0.0 0.0
22:18 7.6 7.5 99 1016.1 13.0 SE 20.6 0.0 0.0
22:20 7.6 7.5 99 1016.2 14.5 SE 20.6 0.0 0.0
22:21 7.6 7.5 99 1016.2 9.2 SE 19.0 0.0 0.0
22:22 7.6 7.5 99 1016.1 9.8 NE 19.0 0.0 0.0
22:23 7.6 7.5 99 1016.0 10.7 SE 19.0 0.0 0.0
22:27 7.6 7.5 99 1016.1 19.0 SE 19.0 0.0 0.0
22:30 7.6 7.5 99 1016.2 22.8 SE 22.8 0.0 0.0
22:41 7.6 7.5 99 1015.9 11.4 SE 17.4 0.0 0.0
22:43 7.6 7.5 99 1015.9 13.6 E 15.2 0.0 0.0
22:44 7.6 7.5 99 1015.8 13.6 SE 15.2 0.0 0.0
22:45 7.6 7.5 99 1016.0 13.0 WSW 15.2 0.0 0.0
22:47 7.6 7.5 99 1015.8 17.4 SE 17.4 0.0 0.0
22:48 7.6 7.5 99 1015.9 14.5 SE 17.4 0.0 0.0
22:49 7.6 7.5 99 1015.7 12.1 SE 17.4 0.0 0.0
22:50 7.6 7.5 99 1015.8 19.7 SE 19.7 0.0 0.0
22:51 7.6 7.5 99 1015.9 18.3 SE 19.7 0.0 0.0
22:52 7.6 7.5 99 1015.7 13.0 SE 19.7 0.0 0.0
22:53 7.6 7.5 99 1015.8 19.7 SE 19.7 0.0 0.0
22:54 7.6 7.5 99 1015.7 12.1 SE 19.7 0.0 0.0
22:56 7.6 7.5 99 1015.7 9.2 SE 19.7 0.0 0.0
22:57 7.6 7.5 99 1015.6 15.2 E 19.7 0.0 0.0
22:58 7.6 7.5 99 1015.5 12.1 SE 19.7 0.0 0.0
23:17 7.6 7.5 99 1015.7 13.0 S 18.3 0.0 0.0
23:25 7.6 7.5 99 1015.3 11.4 SE 15.2 0.0 0.0
23:27 7.6 7.5 99 1015.5 14.5 SE 18.3 0.0 0.0
23:28 7.6 7.5 99 1015.4 16.8 SE 18.3 0.0 0.0
23:29 7.6 7.5 99 1015.5 13.6 SE 18.3 0.0 0.0
23:32 7.6 7.5 99 1015.4 15.2 S 18.3 0.0 0.0
23:33 7.6 7.5 99 1015.3 11.4 SE 18.3 0.0 0.0
23:35 7.6 7.5 99 1015.2 9.8 S 18.3 0.0 0.0
23:37 7.6 7.5 99 1015.4 13.0 SE 19.0 0.0 0.0
23:40 7.6 7.5 99 1015.2 10.7 SE 19.0 0.0 0.0
23:41 7.6 7.5 99 1015.2 9.2 SE 19.0 0.0 0.0
23:42 7.6 7.5 99 1015.2 15.2 SE 19.0 0.0 0.0
23:43 7.6 7.5 99 1015.2 10.7 SE 19.0 0.0 0.0
23:44 7.6 7.5 99 1015.1 10.7 SE 19.0 0.0 0.0
23:46 7.6 7.5 99 1015.2 13.6 SE 19.0 0.0 0.0
23:47 7.6 7.5 99 1015.2 11.4 SE 15.9 0.0 0.0
23:48 7.6 7.5 99 1015.1 11.4 SE 15.9 0.0 0.0
23:49 7.6 7.5 99 1015.1 11.4 SE 15.9 0.0 0.0
23:50 7.6 7.5 99 1015.0 13.0 SE 15.9 0.0 0.0
23:51 7.6 7.5 99 1015.1 13.6 SSW 15.9 0.0 0.0
23:53 7.6 7.5 99 1015.0 7.6 SE 15.2 0.0 0.0
23:54 7.6 7.5 99 1015.0 14.5 SE 15.2 0.0 0.0
23:55 7.6 7.5 99 1015.0 11.4 SE 16.8 0.0 0.0
23:56 7.6 7.5 99 1015.0 11.4 SE 16.8 0.0 0.0
23:57 7.6 7.5 99 1014.8 9.8 SE 16.8 0.0 0.0
23:58 7.6 7.5 99 1014.9 14.5 SE 16.8 0.0 0.0
10:30 7.5 7.4 99 1022.5 10.7 SE 15.2 0.0 0.0
10:31 7.5 7.4 99 1022.6 10.7 SE 15.2 0.0 0.0
10:32 7.5 7.4 99 1022.6 8.3 SE 15.2 0.0 0.0
10:33 7.5 7.4 99 1022.5 11.4 SE 15.2 0.0 0.0
10:34 7.5 7.4 99 1022.4 8.3 SE 15.2 0.0 0.0
10:35 7.5 7.4 99 1022.4 9.8 SE 15.2 0.0 0.0
14:18 7.5 7.1 97 1019.9 12.1 SE 15.2 0.0 0.0
14:19 7.5 7.1 97 1019.7 13.6 E 15.2 0.0 0.0
14:21 7.5 7.1 97 1019.8 15.2 SE 15.9 0.0 0.0
14:25 7.5 7.1 97 1019.8 15.9 SE 18.3 0.0 0.0
14:26 7.5 7.1 97 1019.8 15.9 SE 18.3 0.0 0.0
14:27 7.5 7.1 97 1019.9 13.6 SE 18.3 0.0 0.0
14:28 7.5 7.1 97 1019.9 16.8 SE 18.3 0.0 0.0
14:29 7.5 7.1 97 1019.7 13.0 SE 18.3 0.0 0.0
14:30 7.5 7.1 97 1019.8 11.4 SE 18.3 0.0 0.0
14:31 7.5 7.1 97 1019.7 15.9 E 18.3 0.0 0.0
14:32 7.5 7.1 97 1019.6 11.4 SE 18.3 0.0 0.0
14:33 7.5 7.1 97 1019.6 10.7 SE 16.8 0.0 0.0
14:34 7.5 7.1 97 1019.8 12.1 SE 16.8 0.0 0.0
14:35 7.5 7.1 97 1019.7 13.6 S 16.8 0.0 0.0
14:36 7.5 7.1 97 1019.7 11.4 NW 16.8 0.0 0.0
14:37 7.5 7.1 97 1019.7 12.1 SE 16.8 0.0 0.0
16:42 7.5 7.4 99 1018.5 7.6 SE 13.6 0.0 0.0
16:43 7.5 7.4 99 1018.6 13.0 S 13.6 0.0 0.0
16:44 7.5 7.4 99 1018.6 8.3 E 13.6 0.0 0.0
16:45 7.5 7.4 99 1018.6 9.8 SE 13.6 0.0 0.0
16:46 7.5 7.4 99 1018.6 7.6 SE 13.0 0.0 0.0
16:47 7.5 7.4 99 1018.6 13.6 SE 13.6 0.0 0.0
16:48 7.5 7.4 99 1018.5 8.3 E 13.6 0.0 0.0
16:49 7.5 7.4 99 1018.5 11.4 SE 13.6 0.0 0.0
10:24 7.4 7.3 99 1022.7 7.6 SE 13.6 0.0 0.0
10:26 7.4 7.3 99 1022.6 9.8 SE 13.6 0.0 0.0
10:27 7.4 7.3 99 1022.6 12.1 SE 13.6 0.0 0.0
10:29 7.4 7.3 99 1022.4 12.1 SE 15.2 0.0 0.0
14:38 7.4 7.0 97 1019.6 13.6 S 15.9 0.0 0.0
14:39 7.4 7.0 97 1019.6 13.6 SE 15.9 0.0 0.0
14:40 7.4 7.0 97 1019.7 13.6 SE 15.9 0.0 0.0
14:41 7.4 7.0 97 1019.6 13.0 SE 13.6 0.0 0.0
14:42 7.4 7.0 97 1019.7 11.4 SE 13.6 0.0 0.0
14:43 7.4 7.0 97 1019.7 9.2 E 13.6 0.0 0.0
14:44 7.4 7.0 97 1019.8 13.6 SE 13.6 0.0 0.0
14:45 7.4 7.0 97 1019.6 12.1 S 13.6 0.0 0.0
14:46 7.4 7.0 97 1019.3 11.4 SE 14.5 0.0 0.0
14:47 7.4 7.0 97 1019.6 15.2 SE 15.2 0.0 0.0
16:36 7.4 7.3 99 1018.7 11.4 SE 13.6 0.0 0.0
16:37 7.4 7.3 99 1018.6 11.4 SE 13.6 0.0 0.0
16:38 7.4 7.3 99 1018.7 8.3 SE 13.6 0.0 0.0
16:39 7.4 7.3 99 1018.5 10.7 SE 13.6 0.0 0.0
16:40 7.4 7.3 99 1018.6 9.8 SE 13.6 0.0 0.0
16:41 7.4 7.3 99 1018.6 10.7 SE 13.6 0.0 0.0
10:12 7.3 7.2 99 1022.7 10.7 SE 12.1 0.0 0.0
10:14 7.3 7.2 99 1022.7 13.0 SE 15.9 0.0 0.0
10:15 7.3 7.2 99 1022.7 10.7 SE 15.9 0.0 0.0
10:17 7.3 7.2 99 1022.8 10.7 SE 15.9 0.0 0.0
10:18 7.3 7.2 99 1022.6 8.3 SE 15.9 0.0 0.0
10:19 7.3 7.2 99 1022.7 7.6 SE 15.9 0.0 0.0
10:20 7.3 7.2 99 1022.7 10.7 SE 15.9 0.0 0.0
10:21 7.3 7.2 99 1022.5 13.0 SE 15.9 0.0 0.0
10:22 7.3 7.2 99 1022.6 9.2 S 15.9 0.0 0.0
10:23 7.3 7.2 99 1022.7 9.2 SE 15.9 0.0 0.0
10:25 7.3 7.2 99 1022.6 10.7 SE 13.6 0.0 0.0
14:48 7.3 6.9 97 1019.5 11.4 SE 15.2 0.0 0.0
14:49 7.3 6.9 97 1019.5 14.5 SE 15.2 0.0 0.0
14:50 7.3 6.9 97 1019.4 12.1 SE 15.2 0.0 0.0
14:51 7.3 6.9 97 1019.4 9.2 SE 15.2 0.0 0.0
14:52 7.3 6.9 97 1019.5 11.4 SE 15.2 0.0 0.0
14:53 7.3 6.9 97 1019.4 12.1 SE 15.2 0.0 0.0
14:54 7.3 6.9 97 1019.5 9.8 SE 15.2 0.0 0.0
14:55 7.3 6.9 97 1019.5 10.7 SE 15.2 0.0 0.0
14:56 7.3 6.9 97 1019.5 9.2 SE 15.2 0.0 0.0
14:57 7.3 6.9 97 1019.4 9.8 SE 15.2 0.0 0.0
16:27 7.3 7.2 99 1018.7 9.8 E 10.7 0.0 0.0
16:28 7.3 7.2 99 1018.7 10.7 SE 10.7 0.0 0.0
16:29 7.3 7.2 99 1018.7 11.4 SE 11.4 0.0 0.0
16:30 7.3 7.2 99 1018.6 9.8 NE 11.4 0.0 0.0
16:31 7.3 7.2 99 1018.7 9.2 SE 11.4 0.0 0.0
16:32 7.3 7.2 99 1018.6 13.6 SE 13.6 0.0 0.0
16:33 7.3 7.2 99 1018.6 8.3 SE 13.6 0.0 0.0
16:34 7.3 7.2 99 1018.7 10.7 SE 13.6 0.0 0.0
16:35 7.3 7.2 99 1018.8 13.0 SE 13.6 0.0 0.0
10:07 7.2 7.1 99 1022.7 11.4 SE 12.1 0.0 0.0
10:08 7.2 7.1 99 1022.7 9.8 SE 12.1 0.0 0.0
10:09 7.2 7.1 99 1022.8 8.3 SE 12.1 0.0 0.0
10:11 7.2 7.1 99 1022.7 9.2 NW 12.1 0.0 0.0
14:58 7.2 6.8 97 1019.5 13.0 SE 14.5 0.0 0.0
14:59 7.2 6.8 97 1019.4 13.0 SE 13.0 0.0 0.0
15:01 7.2 6.8 97 1019.3 13.0 SE 13.0 0.0 0.0
15:02 7.2 6.8 97 1019.3 13.0 SE 13.0 0.0 0.0
15:03 7.2 6.8 97 1019.4 13.0 SE 13.0 0.0 0.0
15:04 7.2 6.8 97 1019.4 13.0 SE 13.0 0.0 0.0
15:05 7.2 6.8 97 1019.3 11.4 SE 13.0 0.0 0.0
15:06 7.2 6.8 97 1019.2 11.4 SE 13.0 0.0 0.0
15:07 7.2 6.8 97 1019.2 10.7 SE 13.0 0.0 0.0
15:08 7.2 6.8 97 1019.2 10.7 SE 17.4 0.0 0.0
15:10 7.2 6.8 97 1019.2 9.8 SE 17.4 0.0 0.0
15:11 7.2 6.8 97 1019.2 9.2 NE 17.4 0.0 0.0
16:17 7.2 7.1 99 1018.8 6.0 SE 11.4 0.0 0.0
16:18 7.2 7.1 99 1018.7 9.8 E 9.8 0.0 0.0
16:19 7.2 7.1 99 1018.7 9.8 SE 9.8 0.0 0.0
16:20 7.2 7.1 99 1018.8 9.2 E 9.8 0.0 0.0
16:21 7.2 7.1 99 1018.8 7.6 SE 9.8 0.0 0.0
16:23 7.2 7.1 99 1018.8 7.6 SE 9.8 0.0 0.0
16:24 7.2 7.1 99 1018.7 9.2 SE 10.7 0.0 0.0
16:25 7.2 7.1 99 1018.8 10.7 SE 10.7 0.0 0.0
16:26 7.2 7.1 99 1018.8 10.7 SE 10.7 0.0 0.0
09:58 7.1 7.0 99 1022.9 12.1 SE 13.6 0.0 0.0
10:02 7.1 7.0 99 1023.0 10.7 E 13.6 0.0 0.0
10:03 7.1 7.0 99 1022.7 11.4 NE 12.1 0.0 0.0
10:04 7.1 7.0 99 1022.8 12.1 SE 12.1 0.0 0.0
10:05 7.1 7.0 99 1022.7 9.8 SE 12.1 0.0 0.0
10:06 7.1 7.0 99 1022.6 8.3 SE 12.1 0.0 0.0
15:13 7.1 6.7 97 1019.4 11.4 SE 17.4 0.0 0.0
15:14 7.1 6.7 97 1019.3 10.7 E 17.4 0.0 0.0
15:15 7.1 6.8 98 1019.3 9.8 SE 17.4 0.0 0.0
15:16 7.1 6.8 98 1019.2 10.7 NE 17.4 0.0 0.0
15:17 7.1 6.8 98 1019.2 9.8 SE 17.4 0.0 0.0
15:18 7.1 6.8 98 1019.1 6.0 SE 12.1 0.0 0.0
15:19 7.1 6.8 98 1019.1 11.4 SE 12.1 0.0 0.0
15:20 7.1 6.8 98 1019.2 8.3 SE 12.1 0.0 0.0
15:21 7.1 6.8 98 1019.1 8.3 SE 11.4 0.0 0.0
15:22 7.1 6.8 98 1019.2 9.2 SE 11.4 0.0 0.0
15:23 7.1 6.8 98 1019.3 10.7 SE 11.4 0.0 0.0
15:24 7.1 6.8 98 1019.1 7.6 SE 11.4 0.0 0.0
15:25 7.1 6.8 98 1019.2 14.5 SE 14.5 0.0 0.0
15:26 7.1 6.8 98 1019.0 7.6 SE 14.5 0.0 0.0
15:27 7.1 6.8 98 1019.1 8.3 SE 14.5 0.0 0.0
15:28 7.1 6.8 98 1019.1 6.9 SE 14.5 0.0 0.0
15:29 7.1 6.8 98 1019.0 9.8 SE 14.5 0.0 0.0
15:30 7.1 6.8 98 1019.0 7.6 SE 14.5 0.0 0.0
15:31 7.1 6.8 98 1019.1 10.7 N 14.5 0.0 0.0
15:32 7.1 6.8 98 1019.1 9.2 SE 14.5 0.0 0.0
15:33 7.1 6.8 98 1019.0 7.6 SE 14.5 0.0 0.0
15:35 7.1 6.8 98 1019.0 7.6 SE 14.5 0.0 0.0
15:36 7.1 6.8 98 1019.0 10.7 SE 13.6 0.0 0.0
15:37 7.1 6.8 98 1019.1 11.4 SE 13.6 0.0 0.0
15:38 7.1 6.8 98 1019.1 9.8 SE 13.6 0.0 0.0
15:39 7.1 6.8 98 1018.8 9.8 SE 13.6 0.0 0.0
15:40 7.1 6.8 98 1018.9 9.8 SE 13.6 0.0 0.0
15:41 7.1 6.8 98 1018.9 6.0 E 11.4 0.0 0.0
16:05 7.1 7.0 99 1018.8 7.6 SE 10.7 0.0 0.0
16:06 7.1 7.0 99 1019.0 7.6 SE 10.7 0.0 0.0
16:07 7.1 7.0 99 1018.7 9.2 SE 9.8 0.0 0.0
16:08 7.1 7.0 99 1018.9 6.9 SE 11.4 0.0 0.0
16:10 7.1 7.0 99 1018.6 6.0 SE 11.4 0.0 0.0
16:11 7.1 7.0 99 1018.7 7.6 SE 11.4 0.0 0.0
16:13 7.1 7.0 99 1018.8 9.8 SE 11.4 0.0 0.0
16:14 7.1 7.0 99 1018.8 6.9 SE 11.4 0.0 0.0
16:15 7.1 7.0 99 1018.8 8.3 SE 11.4 0.0 0.0
16:16 7.1 7.0 99 1018.8 8.3 SE 11.4 0.0 0.0
09:44 7.0 6.9 99 1023.1 9.8 SE 15.9 0.0 0.0
09:45 7.0 6.9 99 1023.1 9.2 SE 15.9 0.0 0.0
09:46 7.0 6.9 99 1023.1 8.3 SE 15.9 0.0 0.0
09:47 7.0 6.9 99 1023.2 15.2 SE 15.9 0.0 0.0
09:48 7.0 6.9 99 1023.2 13.0 SE 15.2 0.0 0.0
09:49 7.0 6.9 99 1023.1 9.8 W 15.2 0.0 0.0
09:50 7.0 6.9 99 1023.2 11.4 SE 15.2 0.0 0.0
09:51 7.0 6.9 99 1023.2 10.7 SE 15.2 0.0 0.0
09:52 7.0 6.9 99 1023.2 13.6 WSW 15.2 0.0 0.0
09:53 7.0 6.9 99 1023.1 12.1 SE 15.2 0.0 0.0
09:54 7.0 6.9 99 1023.0 10.7 SE 15.2 0.0 0.0
09:55 7.0 6.9 99 1023.1 12.1 SE 15.2 0.0 0.0
09:56 7.0 6.9 99 1023.0 9.8 SE 15.2 0.0 0.0
09:57 7.0 6.9 99 1023.0 9.8 SE 15.2 0.0 0.0
09:59 7.0 6.9 99 1022.9 11.4 SE 13.6 0.0 0.0
10:00 7.0 6.9 99 1023.0 11.4 SE 13.6 0.0 0.0
15:42 7.0 6.7 98 1018.9 9.8 NE 11.4 0.0 0.0
15:43 7.0 6.7 98 1019.0 8.3 SE 11.4 0.0 0.0
15:44 7.0 6.7 98 1018.8 9.8 SE 11.4 0.0 0.0
15:45 7.0 6.7 98 1018.9 7.6 N 11.4 0.0 0.0
15:46 7.0 6.7 98 1018.9 7.6 NE 11.4 0.0 0.0
15:47 7.0 6.7 98 1019.0 10.7 SE 11.4 0.0 0.0
15:48 7.0 6.7 98 1018.8 7.6 SE 10.7 0.0 0.0
15:49 7.0 6.7 98 1018.9 7.6 SE 10.7 0.0 0.0
15:50 7.0 6.7 98 1018.9 9.2 SE 10.7 0.0 0.0
15:51 7.0 6.7 98 1018.8 6.9 SE 11.4 0.0 0.0
15:52 7.0 6.7 98 1018.9 10.7 S 11.4 0.0 0.0
15:53 7.0 6.7 98 1018.9 13.0 SE 13.0 0.0 0.0
15:54 7.0 6.7 98 1018.9 9.2 SE 13.0 0.0 0.0
15:55 7.0 6.7 98 1018.9 9.8 SE 13.0 0.0 0.0
15:56 7.0 6.7 98 1019.0 10.7 SE 13.0 0.0 0.0
15:57 7.0 6.7 98 1018.8 6.9 SE 13.0 0.0 0.0
15:58 7.0 6.7 98 1018.8 6.0 SE 13.0 0.0 0.0
15:59 7.0 6.7 98 1018.7 9.2 SE 13.0 0.0 0.0
16:01 7.0 6.7 98 1018.8 9.2 SE 13.0 0.0 0.0
16:02 7.0 6.7 98 1018.8 9.2 SE 13.0 0.0 0.0
16:03 7.0 6.7 98 1018.9 9.2 SE 13.0 0.0 0.0
16:04 7.0 6.7 98 1018.9 9.2 SE 10.7 0.0 0.0
09:41 6.9 6.8 99 1023.2 9.8 SE 15.9 0.0 0.0
09:42 6.9 6.8 99 1023.2 7.6 SE 15.9 0.0 0.0
09:43 6.9 6.8 99 1023.1 13.6 SE 15.9 0.0 0.0
09:39 6.8 6.7 99 1023.2 9.8 SE 15.9 0.0 0.0
09:40 6.8 6.7 99 1023.2 10.7 SE 15.9 0.0 0.0
09:37 6.7 6.6 99 1023.3 12.1 SE 15.2 0.0 0.0
09:38 6.7 6.6 99 1023.2 15.9 SE 15.9 0.0 0.0
09:33 6.6 6.5 99 1023.3 13.6 SE 14.5 0.0 0.0
09:35 6.6 6.5 99 1023.4 15.2 S 15.2 0.0 0.0
09:36 6.6 6.5 99 1023.3 12.1 SE 15.2 0.0 0.0
09:32 6.5 6.4 99 1023.3 10.7 SE 14.5 0.0 0.0
09:26 6.4 6.3 99 1023.5 9.2 SE 9.2 0.0 0.0
09:27 6.4 6.3 99 1023.3 9.2 SE 13.0 0.0 0.0
09:29 6.4 6.3 99 1023.2 9.2 S 13.0 0.0 0.0
09:30 6.4 6.3 99 1023.4 11.4 SE 13.0 0.0 0.0
09:21 6.3 6.2 99 1023.3 8.3 S 9.2 0.0 0.0
09:23 6.3 6.2 99 1023.3 9.2 SE 9.2 0.0 0.0
09:24 6.3 6.2 99 1023.5 6.9 SE 9.2 0.0 0.0
09:16 6.2 6.1 99 1023.4 7.6 SE 9.8 0.0 0.0
09:17 6.2 6.1 99 1023.4 6.9 SE 9.2 0.0 0.0
09:19 6.2 6.1 99 1023.5 6.0 SE 9.2 0.0 0.0
09:20 6.2 6.1 99 1023.4 6.9 SE 9.2 0.0 0.0
09:07 6.1 6.0 99 1023.4 6.9 SE 9.8 0.0 0.0
09:08 6.1 6.0 99 1023.4 8.3 SE 9.8 0.0 0.0
09:10 6.1 6.0 99 1023.4 8.3 SE 9.8 0.0 0.0
09:11 6.1 6.0 99 1023.4 8.3 S 9.8 0.0 0.0
09:12 6.1 6.0 99 1023.3 8.3 S 9.8 0.0 0.0
09:14 6.1 6.0 99 1023.5 8.3 SE 9.8 0.0 0.0
09:05 6.0 5.9 99 1023.2 6.0 SE 9.2 0.0 0.0
09:06 6.0 5.9 99 1023.4 9.8 SE 9.8 0.0 0.0
08:53 5.9 5.8 99 1023.4 6.0 SE 8.3 0.0 0.0
08:54 5.9 5.8 99 1023.3 6.9 SE 8.3 0.0 0.0
08:55 5.9 5.8 99 1023.4 7.6 SE 8.3 0.0 0.0
08:56 5.9 5.8 99 1023.5 5.4 SE 7.6 0.0 0.0
08:57 5.9 5.8 99 1023.5 6.9 E 7.6 0.0 0.0
08:58 5.9 5.8 99 1023.5 6.0 SE 7.6 0.0 0.0
08:59 5.9 5.8 99 1023.5 8.3 SE 9.2 0.0 0.0
09:00 5.9 5.8 99 1023.4 8.3 SE 9.2 0.0 0.0
09:01 5.9 5.8 99 1023.4 8.3 SE 9.2 0.0 0.0
09:02 5.9 5.8 99 1023.4 8.3 SE 9.2 0.0 0.0
09:03 5.9 5.8 99 1023.5 8.3 SE 9.2 0.0 0.0
09:04 5.9 5.8 99 1023.4 8.3 SE 9.2 0.0 0.0
08:27 5.8 5.7 99 1023.4 7.6 SE 7.6 0.0 0.0
08:28 5.8 5.7 99 1023.4 5.4 E 7.6 0.0 0.0
08:30 5.8 5.7 99 1023.4 6.9 SE 7.6 0.0 0.0
08:31 5.8 5.7 99 1023.5 6.0 SE 7.6 0.0 0.0
08:32 5.8 5.7 99 1023.4 5.4 SE 7.6 0.0 0.0
08:33 5.8 5.7 99 1023.2 5.4 SE 7.6 0.0 0.0
08:34 5.8 5.7 99 1023.4 6.9 SE 7.6 0.0 0.0
08:35 5.8 5.7 99 1023.3 6.0 SE 7.6 0.0 0.0
08:36 5.8 5.7 99 1023.3 5.4 SE 7.6 0.0 0.0
08:37 5.8 5.7 99 1023.4 6.0 SE 7.6 0.0 0.0
08:38 5.8 5.7 99 1023.5 5.4 E 7.6 0.0 0.0
08:40 5.8 5.7 99 1023.4 5.4 SE 7.6 0.0 0.0
08:41 5.8 5.7 99 1023.3 6.9 SE 7.6 0.0 0.0
08:42 5.8 5.7 99 1023.5 5.4 SE 7.6 0.0 0.0
08:43 5.8 5.7 99 1023.5 5.4 SE 7.6 0.0 0.0
08:44 5.8 5.7 99 1023.3 6.0 SE 7.6 0.0 0.0
08:45 5.8 5.7 99 1023.4 8.3 SE 8.3 0.0 0.0
08:46 5.8 5.7 99 1023.3 8.3 SE 8.3 0.0 0.0
08:47 5.8 5.7 99 1023.4 6.9 SE 8.3 0.0 0.0
08:48 5.8 5.7 99 1023.3 6.0 SE 8.3 0.0 0.0
08:49 5.8 5.7 99 1023.3 7.6 SE 8.3 0.0 0.0
08:50 5.8 5.7 99 1023.3 6.0 SE 8.3 0.0 0.0
08:51 5.8 5.7 99 1023.2 6.9 SE 8.3 0.0 0.0
08:52 5.8 5.7 99 1023.5 6.9 SE 8.3 0.0 0.0
08:10 5.7 5.6 99 1023.2 6.0 SE 9.8 0.0 0.0
08:12 5.7 5.6 99 1023.3 7.6 SE 9.8 0.0 0.0
08:13 5.7 5.6 99 1023.2 7.6 SE 9.8 0.0 0.0
08:15 5.7 5.6 99 1023.2 7.6 S 9.2 0.0 0.0
08:16 5.7 5.6 99 1023.2 6.9 SE 9.2 0.0 0.0
08:17 5.7 5.6 99 1023.3 6.0 SE 9.2 0.0 0.0
08:19 5.7 5.6 99 1023.3 4.5 SE 9.2 0.0 0.0
08:20 5.7 5.6 99 1023.4 7.6 S 9.2 0.0 0.0
08:22 5.7 5.6 99 1023.5 6.9 E 9.2 0.0 0.0
08:24 5.7 5.6 99 1023.3 6.9 SE 9.2 0.0 0.0
08:25 5.7 5.6 99 1023.3 6.9 SE 9.2 0.0 0.0
08:06 5.6 5.5 99 1023.1 8.3 SE 14.5 0.0 0.0
08:07 5.6 5.5 99 1023.1 6.9 SE 14.5 0.0 0.0
08:08 5.6 5.5 99 1023.1 7.6 SE 14.5 0.0 0.0
08:09 5.6 5.5 99 1023.2 7.6 SE 10.7 0.0 0.0
07:59 5.4 5.3 99 1023.1 10.7 SE 14.5 0.0 0.0
08:00 5.4 5.3 99 1023.2 9.8 SE 14.5 0.0 0.0
08:01 5.4 5.3 99 1023.2 9.8 SE 14.5 0.0 0.0
08:02 5.4 5.3 99 1023.2 9.8 SE 14.5 0.0 0.0
08:03 5.4 5.3 99 1023.2 9.8 SE 14.5 0.0 0.0
08:04 5.4 5.3 99 1023.2 9.8 SE 14.5 0.0 0.0
08:05 5.4 5.3 99 1023.2 9.8 SE 14.5 0.0 0.0
07:15 5.3 5.2 99 1023.4 6.9 SE 11.4 0.0 0.0
07:16 5.3 5.2 99 1023.2 5.4 SE 11.4 0.0 0.0
07:18 5.3 5.2 99 1023.2 7.6 SE 9.8 0.0 0.0
07:19 5.3 5.2 99 1023.2 7.6 SE 8.3 0.0 0.0
07:21 5.3 5.2 99 1023.2 6.9 SE 8.3 0.0 0.0
07:23 5.3 5.2 99 1023.2 6.9 SE 8.3 0.0 0.0
07:54 5.3 5.2 99 1023.2 8.3 SE 8.3 0.0 0.0
07:55 5.3 5.2 99 1023.0 7.6 E 8.3 0.0 0.0
07:56 5.3 5.2 99 1023.3 8.3 SE 8.3 0.0 0.0
07:57 5.3 5.2 99 1023.2 8.3 SE 8.3 0.0 0.0
07:58 5.3 5.2 99 1023.1 14.5 SE 14.5 0.0 0.0
07:08 5.2 5.1 99 1023.3 9.2 SE 11.4 0.0 0.0
07:10 5.2 5.1 99 1023.2 6.9 SE 11.4 0.0 0.0
07:11 5.2 5.1 99 1023.2 7.6 SE 11.4 0.0 0.0
07:13 5.2 5.1 99 1023.2 5.4 S 11.4 0.0 0.0
07:24 5.2 5.1 99 1023.2 5.4 SE 8.3 0.0 0.0
07:26 5.2 5.1 99 1023.1 5.4 SE 8.3 0.0 0.0
07:27 5.2 5.1 99 1023.2 7.6 SE 8.3 0.0 0.0
07:29 5.2 5.1 99 1023.2 5.4 SE 7.6 0.0 0.0
07:30 5.2 5.1 99 1023.2 5.4 SE 7.6 0.0 0.0
07:49 5.2 5.1 99 1023.2 6.9 SE 8.3 0.0 0.0
07:50 5.2 5.1 99 1023.2 7.6 SE 8.3 0.0 0.0
07:51 5.2 5.1 99 1023.1 6.9 SE 7.6 0.0 0.0
07:52 5.2 5.1 99 1023.1 6.9 SE 7.6 0.0 0.0
07:53 5.2 5.1 99 1023.2 7.6 SE 7.6 0.0 0.0
07:00 5.1 5.0 99 1023.3 6.9 SE 8.3 0.0 0.0
07:01 5.1 5.0 99 1023.3 6.9 SE 8.3 0.0 0.0
07:02 5.1 5.0 99 1023.4 6.9 SE 8.3 0.0 0.0
07:03 5.1 5.0 99 1023.3 6.9 SE 7.6 0.0 0.0
07:04 5.1 5.0 99 1023.2 6.9 SE 6.9 0.0 0.0
07:05 5.1 5.0 99 1023.3 6.0 SE 6.9 0.0 0.0
07:06 5.1 5.0 99 1023.3 6.9 SE 6.9 0.0 0.0
07:07 5.1 5.0 99 1023.2 11.4 SE 11.4 0.0 0.0
07:31 5.1 5.0 99 1023.2 6.0 SE 7.6 0.0 0.0
07:32 5.1 5.0 99 1023.2 6.0 SE 7.6 0.0 0.0
07:33 5.1 5.0 99 1023.2 5.4 SE 7.6 0.0 0.0
07:34 5.1 5.0 99 1023.2 5.4 SE 7.6 0.0 0.0
07:35 5.1 5.0 99 1023.2 6.0 SE 7.6 0.0 0.0
07:36 5.1 5.0 99 1023.2 6.9 SE 7.6 0.0 0.0
07:37 5.1 5.0 99 1023.2 8.3 SE 8.3 0.0 0.0
07:38 5.1 5.0 99 1023.2 7.6 SE 8.3 0.0 0.0
07:39 5.1 5.0 99 1023.2 6.0 SE 8.3 0.0 0.0
07:42 5.1 5.0 99 1023.2 6.9 SE 8.3 0.0 0.0
07:43 5.1 5.0 99 1023.2 6.0 SE 8.3 0.0 0.0
07:44 5.1 5.0 99 1023.2 5.4 SE 8.3 0.0 0.0
07:45 5.1 5.0 99 1023.2 7.6 SE 8.3 0.0 0.0
07:46 5.1 5.0 99 1023.2 7.6 SE 8.3 0.0 0.0
07:47 5.1 5.0 99 1023.2 6.0 SE 8.3 0.0 0.0
07:48 5.1 5.0 99 1023.2 6.9 S 8.3 0.0 0.0
06:52 5.0 4.9 99 1023.5 4.5 SE 9.2 0.0 0.0
06:53 5.0 4.9 99 1023.3 6.0 SE 9.2 0.0 0.0
06:54 5.0 4.9 99 1023.4 7.6 SE 9.2 0.0 0.0
06:55 5.0 4.9 99 1023.3 6.0 SE 9.2 0.0 0.0
06:56 5.0 4.9 99 1023.2 3.8 SE 9.2 0.0 0.0
06:58 5.0 4.9 99 1023.3 6.0 SE 9.2 0.0 0.0
06:59 5.0 4.9 99 1023.3 4.5 SE 8.3 0.0 0.0
07:41 5.0 4.9 99 1023.2 8.3 SE 8.3 0.0 0.0
06:48 4.9 4.8 99 1023.4 7.6 SE 7.6 0.0 0.0
06:50 4.9 4.8 99 1023.4 5.4 SE 9.2 0.0 0.0
06:51 4.9 4.8 99 1023.5 5.4 SE 9.2 0.0 0.0
06:45 4.8 4.7 99 1023.6 5.4 SE 7.6 0.0 0.0
06:47 4.8 4.7 99 1023.5 6.9 SE 7.6 0.0 0.0
06:49 4.8 4.7 99 1023.4 9.2 SE 9.2 0.0 0.0
06:34 4.7 4.6 99 1023.3 6.9 SE 9.2 0.0 0.0
06:35 4.7 4.6 99 1023.4 5.4 SE 9.2 0.0 0.0
06:36 4.7 4.6 99 1023.4 5.4 SE 9.2 0.0 0.0
06:37 4.7 4.6 99 1023.4 4.5 SE 9.2 0.0 0.0
06:38 4.7 4.6 99 1023.6 5.4 SE 9.2 0.0 0.0
06:39 4.7 4.6 99 1023.3 5.4 SE 9.2 0.0 0.0
06:40 4.7 4.6 99 1023.4 5.4 SE 9.2 0.0 0.0
06:41 4.7 4.6 99 1023.4 6.0 SE 6.9 0.0 0.0
06:42 4.7 4.6 99 1023.5 6.9 SE 6.9 0.0 0.0
06:43 4.7 4.6 99 1023.4 6.9 SE 7.6 0.0 0.0
05:41 4.6 4.5 99 1023.3 5.4 SE 8.3 0.0 0.0
05:42 4.6 4.5 99 1023.3 3.8 SE 8.3 0.0 0.0
05:43 4.6 4.5 99 1023.2 6.0 SE 8.3 0.0 0.0
05:44 4.6 4.5 99 1023.2 4.5 SE 8.3 0.0 0.0
05:45 4.6 4.5 99 1023.2 4.5 SE 6.9 0.0 0.0
05:46 4.6 4.5 99 1023.2 5.4 SE 6.9 0.0 0.0
05:47 4.6 4.5 99 1023.4 4.5 SE 6.9 0.0 0.0
05:48 4.6 4.5 99 1023.4 5.4 SE 6.9 0.0 0.0
05:49 4.6 4.5 99 1023.2 3.8 SE 6.0 0.0 0.0
05:51 4.6 4.5 99 1023.5 3.1 SE 6.0 0.0 0.0
05:52 4.6 4.5 99 1023.4 4.5 SE 6.0 0.0 0.0
06:28 4.6 4.5 99 1023.3 7.6 SE 7.6 0.0 0.0
06:29 4.6 4.5 99 1023.5 8.3 SE 8.3 0.0 0.0
06:30 4.6 4.5 99 1023.4 9.2 SE 9.2 0.0 0.0
06:31 4.6 4.5 99 1023.2 4.5 SE 9.2 0.0 0.0
06:33 4.6 4.5 99 1023.3 5.4 SE 9.2 0.0 0.0
05:38 4.5 4.4 99 1023.4 6.9 SE 8.3 0.0 0.0
05:39 4.5 4.4 99 1023.3 6.0 SE 8.3 0.0 0.0
05:40 4.5 4.4 99 1023.4 4.5 SE 8.3 0.0 0.0
05:53 4.5 4.4 99 1023.4 3.8 SE 6.0 0.0 0.0
05:54 4.5 4.4 99 1023.3 3.8 SE 6.0 0.0 0.0
05:55 4.5 4.4 99 1023.4 3.8 SE 6.0 0.0 0.0
05:56 4.5 4.4 99 1023.3 4.5 SE 6.0 0.0 0.0
05:57 4.5 4.4 99 1023.4 5.4 SE 6.0 0.0 0.0
05:58 4.5 4.4 99 1023.3 2.2 SE 6.0 0.0 0.0
06:24 4.5 4.4 99 1023.3 5.4 SE 7.6 0.0 0.0
06:26 4.5 4.4 99 1023.4 7.6 SE 7.6 0.0 0.0
06:27 4.5 4.4 99 1023.4 6.0 SE 7.6 0.0 0.0
05:35 4.4 4.3 99 1023.5 8.3 SE 8.3 0.0 0.0
05:36 4.4 4.3 99 1023.5 5.4 SE 8.3 0.0 0.0
05:37 4.4 4.3 99 1023.4 6.0 SE 8.3 0.0 0.0
05:59 4.4 4.3 99 1023.3 3.1 SE 6.0 0.0 0.0
06:00 4.4 4.3 99 1023.5 3.8 SE 5.4 0.0 0.0
06:01 4.4 4.3 99 1023.3 3.8 SE 5.4 0.0 0.0
06:02 4.4 4.3 99 1023.3 3.8 SE 5.4 0.0 0.0
06:03 4.4 4.3 99 1023.4 3.8 SE 5.4 0.0 0.0
06:04 4.4 4.3 99 1023.5 3.8 SE 5.4 0.0 0.0
06:05 4.4 4.3 99 1023.3 5.4 SE 5.4 0.0 0.0
06:06 4.4 4.3 99 1023.3 5.4 SE 5.4 0.0 0.0
06:07 4.4 4.3 99 1023.4 4.5 SE 5.4 0.0 0.0
06:09 4.4 4.3 99 1023.2 5.4 SE 6.9 0.0 0.0
06:10 4.4 4.3 99 1023.4 6.0 SE 6.9 0.0 0.0
06:12 4.4 4.3 99 1023.4 6.9 SE 6.9 0.0 0.0
06:13 4.4 4.3 99 1023.4 6.0 SE 6.9 0.0 0.0
06:15 4.4 4.3 99 1023.5 5.4 SE 6.9 0.0 0.0
06:16 4.4 4.3 99 1023.4 6.0 SE 6.9 0.0 0.0
06:18 4.4 4.3 99 1023.4 6.0 SE 6.9 0.0 0.0
06:19 4.4 4.3 99 1023.3 7.6 SE 7.6 0.0 0.0
06:21 4.4 4.3 99 1023.4 7.6 SE 7.6 0.0 0.0
06:23 4.4 4.3 99 1023.4 6.0 SE 7.6 0.0 0.0
05:33 4.3 4.2 99 1023.4 5.4 SE 7.6 0.0 0.0
05:34 4.3 4.2 99 1023.3 6.0 SE 7.6 0.0 0.0
05:28 4.2 4.1 99 1023.6 5.4 SE 7.6 0.0 0.0
05:29 4.2 4.1 99 1023.6 6.0 SE 7.6 0.0 0.0
05:30 4.2 4.1 99 1023.4 6.0 SE 7.6 0.0 0.0
05:32 4.2 4.1 99 1023.4 4.5 SE 7.6 0.0 0.0
05:27 4.1 4.0 99 1023.6 5.4 SE 7.6 0.0 0.0
05:23 4.0 3.9 99 1023.5 5.4 SE 6.9 0.0 0.0
05:24 4.0 3.9 99 1023.4 6.0 SE 6.9 0.0 0.0
05:25 4.0 3.9 99 1023.5 7.6 SE 7.6 0.0 0.0
05:26 4.0 3.9 99 1023.5 6.0 SE 7.6 0.0 0.0
05:20 3.9 3.8 99 1023.6 4.5 SE 6.9 0.0 0.0
05:22 3.9 3.8 99 1023.5 6.0 SE 6.9 0.0 0.0
05:14 3.8 3.7 99 1023.6 5.4 SE 6.0 0.0 0.0
05:16 3.8 3.7 99 1023.6 5.4 SE 6.0 0.0 0.0
05:17 3.8 3.7 99 1023.6 5.4 SE 6.0 0.0 0.0
05:19 3.8 3.7 99 1023.6 5.4 SE 6.0 0.0 0.0
05:09 3.7 3.6 99 1023.6 5.4 SE 5.4 0.0 0.0
05:11 3.7 3.6 99 1023.6 5.4 SE 6.0 0.0 0.0
05:12 3.7 3.6 99 1023.6 4.5 SE 6.0 0.0 0.0
02:08 3.6 3.5 99 1024.5 0.7 N 0.7 0.0 0.0
02:11 3.6 3.5 99 1024.4 0.7 N 0.7 0.0 0.0
02:14 3.6 3.5 99 1024.7 0.7 N 0.7 0.0 0.0
02:16 3.6 3.5 99 1024.5 0.7 N 1.6 0.0 0.0
02:18 3.6 3.5 99 1024.7 0.7 N 1.6 0.0 0.0
05:05 3.6 3.5 99 1023.4 5.4 SE 5.4 0.0 0.0
05:06 3.6 3.5 99 1023.5 4.5 SE 5.4 0.0 0.0
05:07 3.6 3.5 99 1023.5 5.4 SE 5.4 0.0 0.0
00:00 3.5 3.4 99 1024.8 0.7 N 2.2 0.0 0.0
00:02 3.5 3.4 99 1024.9 0.7 N 2.2 0.0 0.0
00:03 3.5 3.4 99 1024.9 0.7 N 2.2 0.0 0.0
00:05 3.5 3.4 99 1024.6 0.7 N 1.6 0.0 0.0
00:06 3.5 3.4 99 1024.9 0.7 N 1.6 0.0 0.0
00:08 3.5 3.4 99 1024.8 0.7 N 0.7 0.0 0.0
00:33 3.5 3.4 99 1024.8 1.6 N 2.2 0.0 0.0
00:36 3.5 3.4 99 1024.9 0.7 N 1.6 0.0 0.0
00:37 3.5 3.4 99 1024.7 0.7 N 1.6 0.0 0.0
00:38 3.5 3.4 99 1024.8 1.6 N 1.6 0.0 0.0
00:39 3.5 3.4 99 1024.9 0.7 N 1.6 0.0 0.0
00:41 3.5 3.4 99 1024.8 0.7 N 1.6 0.0 0.0
00:42 3.5 3.4 99 1024.8 0.7 N 1.6 0.0 0.0
00:43 3.5 3.4 99 1024.7 0.7 N 1.6 0.0 0.0
00:44 3.5 3.4 99 1024.7 0.7 N 1.6 0.0 0.0
00:46 3.5 3.4 99 1024.8 0.0 N 1.6 0.0 0.0
00:47 3.5 3.4 99 1024.9 0.7 N 1.6 0.0 0.0
00:48 3.5 3.4 99 1024.8 0.7 N 1.6 0.0 0.0
00:49 3.5 3.4 99 1024.9 0.7 N 0.7 0.0 0.0
01:46 3.5 3.4 99 1024.6 1.6 N 1.6 0.0 0.0
01:50 3.5 3.4 99 1024.7 0.7 N 1.6 0.0 0.0
02:00 3.5 3.4 99 1024.7 0.7 N 0.7 0.0 0.0
02:03 3.5 3.4 99 1024.6 0.7 N 0.7 0.0 0.0
02:06 3.5 3.4 99 1024.5 0.7 N 0.7 0.0 0.0
02:20 3.5 3.4 99 1024.7 0.7 N 1.6 0.0 0.0
02:24 3.5 3.4 99 1024.6 0.7 N 1.6 0.0 0.0
02:27 3.5 3.4 99 1024.7 1.6 N 1.6 0.0 0.0
02:30 3.5 3.4 99 1024.5 1.6 N 1.6 0.0 0.0
02:32 3.5 3.4 99 1024.6 1.6 N 1.6 0.0 0.0
02:35 3.5 3.4 99 1024.6 0.7 N 1.6 0.0 0.0
02:37 3.5 3.4 99 1024.6 0.7 N 1.6 0.0 0.0
04:58 3.5 3.4 99 1023.5 4.5 SE 6.0 0.0 0.0
04:59 3.5 3.4 99 1023.3 3.8 SE 6.0 0.0 0.0
05:00 3.5 3.4 99 1023.4 4.5 SE 6.0 0.0 0.0
05:01 3.5 3.4 99 1023.6 4.5 SE 6.0 0.0 0.0
05:02 3.5 3.4 99 1023.6 4.5 SE 6.0 0.0 0.0
05:03 3.5 3.4 99 1023.4 4.5 SE 5.4 0.0 0.0
05:04 3.5 3.4 99 1023.6 4.5 SE 5.4 0.0 0.0
00:09 3.4 3.3 99 1024.8 0.7 N 0.7 0.0 0.0
00:11 3.4 3.3 99 1024.9 0.7 N 0.7 0.0 0.0
00:12 3.4 3.3 99 1024.8 0.7 N 0.7 0.0 0.0
00:13 3.4 3.3 99 1024.8 0.7 N 0.7 0.0 0.0
00:14 3.4 3.3 99 1024.8 0.7 N 0.7 0.0 0.0
00:15 3.4 3.3 99 1024.9 0.7 N 0.7 0.0 0.0
00:16 3.4 3.3 99 1024.9 0.7 N 0.7 0.0 0.0
00:17 3.4 3.3 99 1024.8 0.7 N 0.7 0.0 0.0
00:18 3.4 3.3 99 1024.7 0.7 N 0.7 0.0 0.0
00:19 3.4 3.3 99 1024.7 1.6 N 1.6 0.0 0.0
00:20 3.4 3.3 99 1024.7 0.7 N 1.6 0.0 0.0
00:21 3.4 3.3 99 1024.7 0.7 N 1.6 0.0 0.0
00:23 3.4 3.3 99 1024.6 1.6 N 1.6 0.0 0.0
00:25 3.4 3.3 99 1024.6 1.6 N 1.6 0.0 0.0
00:26 3.4 3.3 99 1024.7 2.2 N 2.2 0.0 0.0
00:27 3.4 3.3 99 1024.6 1.6 N 2.2 0.0 0.0
00:28 3.4 3.3 99 1024.6 1.6 N 2.2 0.0 0.0
00:30 3.4 3.3 99 1024.7 1.6 N 2.2 0.0 0.0
00:31 3.4 3.3 99 1024.7 1.6 N 2.2 0.0 0.0
00:45 3.4 3.3 99 1024.8 0.7 N 1.6 0.0 0.0
00:50 3.4 3.3 99 1024.7 0.7 N 0.7 0.0 0.0
00:51 3.4 3.3 99 1024.8 1.6 N 1.6 0.0 0.0
00:52 3.4 3.3 99 1024.8 1.6 N 1.6 0.0 0.0
00:53 3.4 3.3 99 1024.9 1.6 N 1.6 0.0 0.0
00:54 3.4 3.3 99 1024.9 0.7 N 1.6 0.0 0.0
00:56 3.4 3.3 99 1024.9 0.7 N 1.6 0.0 0.0
00:57 3.4 3.3 99 1024.9 0.7 N 1.6 0.0 0.0
00:58 3.4 3.3 99 1024.8 0.7 N 1.6 0.0 0.0
00:59 3.4 3.3 99 1025.0 0.7 N 1.6 0.0 0.0
01:00 3.4 3.3 99 1025.0 1.6 N 1.6 0.0 0.0
01:01 3.4 3.3 99 1025.0 1.6 N 1.6 0.0 0.0
01:02 3.4 3.3 99 1025.1 1.6 N 1.6 0.0 0.0
01:03 3.4 3.3 99 1025.0 1.6 N 1.6 0.0 0.0
01:04 3.4 3.3 99 1025.0 1.6 N 1.6 0.0 0.0
01:06 3.4 3.3 99 1025.0 1.6 N 1.6 0.0 0.0
01:07 3.4 3.3 99 1025.0 1.6 N 1.6 0.0 0.0
01:37 3.4 3.3 99 1024.6 1.6 N 1.6 0.0 0.0
01:39 3.4 3.3 99 1024.6 0.7 N 1.6 0.0 0.0
01:40 3.4 3.3 99 1024.7 1.6 N 1.6 0.0 0.0
01:42 3.4 3.3 99 1024.8 0.7 N 1.6 0.0 0.0
01:44 3.4 3.3 99 1024.8 0.7 N 1.6 0.0 0.0
01:48 3.4 3.3 99 1024.6 1.6 N 1.6 0.0 0.0
01:53 3.4 3.3 99 1024.9 0.7 N 1.6 0.0 0.0
01:55 3.4 3.3 99 1024.7 0.7 N 1.6 0.0 0.0
01:57 3.4 3.3 99 1024.7 0.7 N 1.6 0.0 0.0
02:22 3.4 3.3 99 1024.7 0.7 N 1.6 0.0 0.0
02:34 3.4 3.3 99 1024.7 0.7 N 1.6 0.0 0.0
02:38 3.4 3.3 99 1024.6 1.6 N 1.6 0.0 0.0
02:39 3.4 3.3 99 1024.6 0.7 N 1.6 0.0 0.0
02:42 3.4 3.3 99 1024.5 1.6 N 1.6 0.0 0.0
02:43 3.4 3.3 99 1024.6 1.6 N 1.6 0.0 0.0
02:45 3.4 3.3 99 1024.7 1.6 N 1.6 0.0 0.0
03:54 3.4 3.3 99 1023.6 0.7 E 3.1 0.0 0.0
03:58 3.4 3.3 99 1023.5 1.6 N 3.1 0.0 0.0
04:52 3.4 3.3 99 1023.4 5.4 SE 6.0 0.0 0.0
04:53 3.4 3.3 99 1023.3 6.0 SE 6.0 0.0 0.0
04:54 3.4 3.3 99 1023.3 4.5 SE 6.0 0.0 0.0
04:55 3.4 3.3 99 1023.4 3.1 SE 6.0 0.0 0.0
04:56 3.4 3.3 99 1023.3 3.8 SE 6.0 0.0 0.0
04:57 3.4 3.3 99 1023.4 3.8 SE 6.0 0.0 0.0
00:22 3.3 3.2 99 1024.7 1.6 N 1.6 0.0 0.0
00:24 3.3 3.2 99 1024.6 0.7 N 1.6 0.0 0.0
01:08 3.3 3.2 99 1025.1 1.6 N 1.6 0.0 0.0
01:32 3.3 3.2 99 1024.8 0.7 N 1.6 0.0 0.0
01:34 3.3 3.2 99 1024.6 1.6 N 1.6 0.0 0.0
02:41 3.3 3.2 99 1024.7 1.6 N 1.6 0.0 0.0
02:44 3.3 3.2 99 1024.6 0.7 N 1.6 0.0 0.0
02:46 3.3 3.2 99 1024.6 0.7 N 1.6 0.0 0.0
02:47 3.3 3.2 99 1024.6 0.7 N 1.6 0.0 0.0
02:48 3.3 3.2 99 1024.5 0.7 N 1.6 0.0 0.0
02:49 3.3 3.2 99 1024.4 0.7 N 1.6 0.0 0.0
02:50 3.3 3.2 99 1024.5 0.7 N 1.6 0.0 0.0
02:52 3.3 3.2 99 1024.4 0.7 N 1.6 0.0 0.0
02:53 3.3 3.2 99 1024.5 1.6 N 1.6 0.0 0.0
02:54 3.3 3.2 99 1024.5 0.7 N 1.6 0.0 0.0
02:55 3.3 3.2 99 1024.6 0.7 N 1.6 0.0 0.0
02:56 3.3 3.2 99 1024.4 0.7 N 1.6 0.0 0.0
02:58 3.3 3.2 99 1024.3 1.6 N 1.6 0.0 0.0
03:00 3.3 3.2 99 1024.4 1.6 N 1.6 0.0 0.0
03:01 3.3 3.2 99 1024.4 1.6 N 1.6 0.0 0.0
03:02 3.3 3.2 99 1024.3 1.6 N 1.6 0.0 0.0
03:03 3.3 3.2 99 1024.3 1.6 N 1.6 0.0 0.0
03:04 3.3 3.2 99 1024.3 1.6 N 1.6 0.0 0.0
03:05 3.3 3.2 99 1024.2 1.6 N 1.6 0.0 0.0
03:06 3.3 3.2 99 1024.3 1.6 N 1.6 0.0 0.0
03:07 3.3 3.2 99 1024.3 1.6 N 1.6 0.0 0.0
03:09 3.3 3.2 99 1024.2 1.6 N 1.6 0.0 0.0
03:10 3.3 3.2 99 1024.2 1.6 N 1.6 0.0 0.0
03:12 3.3 3.2 99 1024.1 1.6 N 1.6 0.0 0.0
03:14 3.3 3.2 99 1024.1 0.7 N 1.6 0.0 0.0
03:15 3.3 3.2 99 1024.2 0.7 N 1.6 0.0 0.0
03:17 3.3 3.2 99 1024.0 0.7 N 1.6 0.0 0.0
03:18 3.3 3.2 99 1024.1 0.7 N 1.6 0.0 0.0
03:44 3.3 3.2 99 1023.6 0.7 N 1.6 0.0 0.0
03:45 3.3 3.2 99 1023.6 1.6 N 1.6 0.0 0.0
03:46 3.3 3.2 99 1023.5 0.7 N 1.6 0.0 0.0
03:47 3.3 3.2 99 1023.7 1.6 N 1.6 0.0 0.0
03:48 3.3 3.2 99 1023.8 2.2 E 2.2 0.0 0.0
03:49 3.3 3.2 99 1023.7 1.6 E 2.2 0.0 0.0
03:50 3.3 3.2 99 1023.5 1.6 E 2.2 0.0 0.0
03:51 3.3 3.2 99 1023.7 2.2 E 2.2 0.0 0.0
03:52 3.3 3.2 99 1023.7 3.1 E 3.1 0.0 0.0
03:53 3.3 3.2 99 1023.7 1.6 E 3.1 0.0 0.0
03:56 3.3 3.2 99 1023.6 1.6 E 3.1 0.0 0.0
03:57 3.3 3.2 99 1023.4 1.6 N 3.1 0.0 0.0
03:59 3.3 3.2 99 1023.5 1.6 N 3.1 0.0 0.0
04:00 3.3 3.2 99 1023.4 0.7 N 3.1 0.0 0.0
04:01 3.3 3.2 99 1023.4 0.7 N 3.1 0.0 0.0
04:02 3.3 3.2 99 1023.2 0.7 N 3.1 0.0 0.0
04:03 3.3 3.2 99 1023.4 0.7 N 1.6 0.0 0.0
04:04 3.3 3.2 99 1023.4 0.7 N 1.6 0.0 0.0
04:05 3.3 3.2 99 1023.5 0.7 N 1.6 0.0 0.0
04:06 3.3 3.2 99 1023.4 0.7 N 1.6 0.0 0.0
04:07 3.3 3.2 99 1023.6 0.7 N 1.6 0.0 0.0
04:12 3.3 3.2 99 1023.6 2.2 N 2.2 0.0 0.0
04:44 3.3 3.2 99 1023.7 4.5 SE 4.5 0.0 0.0
04:46 3.3 3.2 99 1023.6 3.8 SE 4.5 0.0 0.0
04:47 3.3 3.2 99 1023.4 4.5 SE 4.5 0.0 0.0
04:48 3.3 3.2 99 1023.3 3.8 SE 4.5 0.0 0.0
04:49 3.3 3.2 99 1023.4 6.0 SE 6.0 0.0 0.0
04:51 3.3 3.2 99 1023.2 3.8 E 6.0 0.0 0.0
01:09 3.2 3.1 99 1024.9 1.6 N 1.6 0.0 0.0
01:11 3.2 3.1 99 1024.8 0.7 N 1.6 0.0 0.0
01:12 3.2 3.1 99 1024.8 1.6 N 1.6 0.0 0.0
01:14 3.2 3.1 99 1024.9 0.7 N 1.6 0.0 0.0
01:16 3.2 3.1 99 1025.0 1.6 N 1.6 0.0 0.0
01:17 3.2 3.1 99 1024.9 0.7 N 1.6 0.0 0.0
01:19 3.2 3.1 99 1024.9 0.7 N 1.6 0.0 0.0
01:20 3.2 3.1 99 1025.0 0.7 N 1.6 0.0 0.0
01:22 3.2 3.1 99 1024.8 0.7 N 1.6 0.0 0.0
01:24 3.2 3.1 99 1024.8 1.6 N 1.6 0.0 0.0
01:25 3.2 3.1 99 1024.8 0.7 N 1.6 0.0 0.0
01:27 3.2 3.1 99 1024.9 0.7 N 1.6 0.0 0.0
01:29 3.2 3.1 99 1024.7 1.6 N 1.6 0.0 0.0
02:57 3.2 3.1 99 1024.4 0.7 N 1.6 0.0 0.0
03:19 3.2 3.1 99 1024.2 0.7 N 1.6 0.0 0.0
03:20 3.2 3.1 99 1024.0 0.7 N 1.6 0.0 0.0
03:22 3.2 3.1 99 1024.1 0.7 N 1.6 0.0 0.0
03:23 3.2 3.1 99 1024.2 0.7 N 0.7 0.0 0.0
03:24 3.2 3.1 99 1024.0 0.7 N 0.7 0.0 0.0
03:25 3.2 3.1 99 1024.0 1.6 N 1.6 0.0 0.0
03:29 3.2 3.1 99 1024.2 0.7 N 1.6 0.0 0.0
03:37 3.2 3.1 99 1023.9 1.6 N 1.6 0.0 0.0
03:38 3.2 3.1 99 1023.9 1.6 N 1.6 0.0 0.0
03:39 3.2 3.1 99 1023.7 0.7 N 1.6 0.0 0.0
03:40 3.2 3.1 99 1023.7 1.6 N 1.6 0.0 0.0
03:41 3.2 3.1 99 1023.8 0.7 N 1.6 0.0 0.0
03:42 3.2 3.1 99 1023.7 1.6 N 1.6 0.0 0.0
03:43 3.2 3.1 99 1023.7 1.6 N 1.6 0.0 0.0
04:09 3.2 3.1 99 1023.4 1.6 N 2.2 0.0 0.0
04:10 3.2 3.1 99 1023.5 1.6 N 2.2 0.0 0.0
04:14 3.2 3.1 99 1023.6 1.6 N 2.2 0.0 0.0
04:15 3.2 3.1 99 1023.6 1.6 N 2.2 0.0 0.0
04:17 3.2 3.1 99 1023.6 0.7 N 2.2 0.0 0.0
04:18 3.2 3.1 99 1023.6 1.6 N 2.2 0.0 0.0
04:27 3.2 3.1 99 1023.5 3.8 SE 4.5 0.0 0.0
04:28 3.2 3.1 99 1023.4 3.1 SE 4.5 0.0 0.0
04:29 3.2 3.1 99 1023.5 1.6 SE 4.5 0.0 0.0
04:30 3.2 3.1 99 1023.5 2.2 SE 4.5 0.0 0.0
04:31 3.2 3.1 99 1023.4 1.6 SE 4.5 0.0 0.0
04:32 3.2 3.1 99 1023.5 2.2 SE 4.5 0.0 0.0
04:33 3.2 3.1 99 1023.4 3.8 SE 4.5 0.0 0.0
04:35 3.2 3.1 99 1023.3 3.1 SE 3.8 0.0 0.0
04:37 3.2 3.1 99 1023.4 3.1 E 3.8 0.0 0.0
04:38 3.2 3.1 99 1023.4 3.8 SE 3.8 0.0 0.0
04:40 3.2 3.1 99 1023.5 3.1 SE 3.8 0.0 0.0
04:41 3.2 3.1 99 1023.4 3.8 SE 3.8 0.0 0.0
04:42 3.2 3.1 99 1023.5 3.8 SE 3.8 0.0 0.0
04:43 3.2 3.1 99 1023.5 3.1 SE 3.8 0.0 0.0
04:45 3.2 3.1 99 1023.5 3.8 SE 4.5 0.0 0.0
01:13 3.1 3.0 99 1024.9 0.7 N 1.6 0.0 0.0
03:26 3.1 3.0 99 1024.1 0.7 N 1.6 0.0 0.0
03:27 3.1 3.0 99 1024.2 0.7 N 1.6 0.0 0.0
03:30 3.1 3.0 99 1024.1 1.6 N 1.6 0.0 0.0
03:31 3.1 3.0 99 1024.2 0.7 N 1.6 0.0 0.0
03:32 3.1 3.0 99 1023.9 1.6 N 1.6 0.0 0.0
03:33 3.1 3.0 99 1023.9 1.6 N 1.6 0.0 0.0
03:34 3.1 3.0 99 1024.0 0.7 N 1.6 0.0 0.0
03:35 3.1 3.0 99 1023.9 1.6 N 1.6 0.0 0.0
04:20 3.1 3.0 99 1023.6 2.2 N 2.2 0.0 0.0
04:21 3.1 3.0 99 1023.7 4.5 SE 4.5 0.0 0.0
04:22 3.1 3.0 99 1023.8 3.8 SE 4.5 0.0 0.0
04:23 3.1 3.0 99 1023.7 3.8 SE 4.5 0.0 0.0
04:24 3.1 3.0 99 1023.5 3.8 SE 4.5 0.0 0.0
04:25 3.1 3.0 99 1023.5 2.2 SE 4.5 0.0 0.0
04:26 3.1 3.0 99 1023.5 3.1 SE 4.5 0.0 0.0

UK - WEATHER STATION TOPSITES - UK World Weather Websites

This is a private weather station, never base important decisions or events on data from this weather station. Although every effort has been made to make the data as accurate as possible it does not meet MetOffice standards. It is proved as a guide of local weather conditions. We accept no liability for any loss which may arise from use of the data.

Copyright © Carnkie Weather 2009 - 2018.